Home > Products > Valid Products > OSO

000
SXUS55 KMSO 241944
OSOMSO
MONTANA AWOS SUMMARY
NATIONAL WEATHER SERVICE MISSOULA MT
143 PM MDT THU JUL 24 2014

Montana AWOS Reports

LAUREL      |K6S8 241935Z AUTO 18007KT 40SM 35/09 A2979 RMK AO1 T03500094
ROUNDUP     |KRPX 241935Z AUTO 27009G14KT 40SM 31/12 A2973 RMK AO1 T03110122
MALTA       |KM75 241935Z AUTO 00000KT 40SM 29/16 A2971 RMK AO1 T02890161






000
SXUS55 KMSO 241924
OSOMSO
MONTANA AWOS SUMMARY
NATIONAL WEATHER SERVICE MISSOULA MT
123 PM MDT THU JUL 24 2014

Montana AWOS Reports

LAUREL      |K6S8 241915Z AUTO 00000KT 40SM 33/12 A2980 RMK AO1 T03330117
ROUNDUP     |KRPX 241915Z AUTO 25004KT 40SM 31/13 A2973 RMK AO1 T03110128






000
SXUS55 KMSO 241914
OSOMSO
MONTANA AWOS SUMMARY
NATIONAL WEATHER SERVICE MISSOULA MT
113 PM MDT THU JUL 24 2014

Montana AWOS Reports

SCOBEY      |K9S2 241855Z AUTO 00000KT 27/15 A2977 RMK AO1 T02720150
EKALAKA     |K97M 241855Z AUTO 00000KT 40SM 32/15 A2980 RMK AO1 T03220150






000
SXUS55 KMSO 241904
OSOMSO
MONTANA AWOS SUMMARY
NATIONAL WEATHER SERVICE MISSOULA MT
103 PM MDT THU JUL 24 2014

Montana AWOS Reports

ROUNDUP     |KRPX 241855Z AUTO 22006KT 40SM 30/13 A2974 RMK AO1 T03000128
LAUREL      |K6S8 241855Z AUTO 00000KT 40SM 32/14 A2980 RMK AO1 T03220139






000
SXUS55 KMSO 241853
OSOMSO
MONTANA AWOS SUMMARY
NATIONAL WEATHER SERVICE MISSOULA MT
1253 PM MDT THU JUL 24 2014

Montana AWOS Reports

PLAINS      |KS34 241755Z AUTO VRB06KT 40SM 18/02 A3012 RMK AO1 T01780022
EKALAKA     |K97M 241555Z AUTO 08009KT 40SM 23/17 A2983 RMK AO1 T02330167






000
SXUS55 KMSO 241843
OSOMSO
MONTANA AWOS SUMMARY
NATIONAL WEATHER SERVICE MISSOULA MT
1243 PM MDT THU JUL 24 2014

Montana AWOS Reports

LAUREL      |K6S8 241835Z AUTO 00000KT 40SM 31/13 A2981 RMK AO1 T03110128
ROUNDUP     |KRPX 241835Z AUTO 00000KT 40SM 29/14 A2974 RMK AO1 T02940139
MALTA       |KM75 241835Z AUTO 00000KT 40SM 28/17 A2973 RMK AO1 T02830172
SCOBEY      |K9S2 241555Z AUTO 11009KT 23/14 A2984 RMK AO1 T02330144
SCOBEY      |K9S2 241655Z AUTO 11012KT 26/14 A2981 RMK AO1 T02560144
SCOBEY      |K9S2 241755Z AUTO 15005KT 26/14 A2982 RMK AO1 T02560144
EKALAKA     |K97M 241455Z AUTO 06009G15KT 40SM 24/17 A2984 RMK AO1 T02390167






000
SXUS55 KMSO 241833
OSOMSO
MONTANA AWOS SUMMARY
NATIONAL WEATHER SERVICE MISSOULA MT
1233 PM MDT THU JUL 24 2014

Montana AWOS Reports

PLAINS      |KS34 241655Z AUTO 22009G14KT 40SM 17/02 A3011 RMK AO1 T01720022






000
SXUS55 KMSO 241823
OSOMSO
MONTANA AWOS SUMMARY
NATIONAL WEATHER SERVICE MISSOULA MT
1222 PM MDT THU JUL 24 2014

Montana AWOS Reports

ROUNDUP     |KRPX 241815Z AUTO 22008KT 40SM 28/16 A2975 RMK AO1 T02830156
MALTA       |KM75 241815Z AUTO 00000KT 40SM 28/17 A2974 RMK AO1 T02780167






000
SXUS55 KMSO 241803
OSOMSO
MONTANA AWOS SUMMARY
NATIONAL WEATHER SERVICE MISSOULA MT
1203 PM MDT THU JUL 24 2014

Montana AWOS Reports

LAUREL      |K6S8 241755Z AUTO 04004KT 40SM 29/17 A2983 RMK AO1 T02940167
ROUNDUP     |KRPX 241755Z AUTO 00000KT 40SM 28/16 A2975 RMK AO1 T02780161
MALTA       |KM75 241755Z AUTO 00000KT 40SM 27/17 A2974 RMK AO1 T02720167






000
SXUS55 KMSO 241743
OSOMSO
MONTANA AWOS SUMMARY
NATIONAL WEATHER SERVICE MISSOULA MT
1143 AM MDT THU JUL 24 2014

Montana AWOS Reports

LAUREL      |K6S8 241735Z AUTO 00000KT 40SM 29/16 A2983 RMK AO1 T02890156
ROUNDUP     |KRPX 241735Z AUTO 00000KT 40SM 27/16 A2976 RMK AO1 T02670161






000
SXUS55 KMSO 241724
OSOMSO
MONTANA AWOS SUMMARY
NATIONAL WEATHER SERVICE MISSOULA MT
1123 AM MDT THU JUL 24 2014

Montana AWOS Reports

LAUREL      |K6S8 241715Z AUTO 00000KT 40SM 28/16 A2984 RMK AO1 T02830161
ROUNDUP     |KRPX 241715Z AUTO 00000KT 40SM 26/16 A2977 RMK AO1 T02610161
MALTA       |KM75 241715Z AUTO 00000KT 40SM 27/17 A2976 RMK AO1 T02670172






000
SXUS55 KMSO 241703
OSOMSO
MONTANA AWOS SUMMARY
NATIONAL WEATHER SERVICE MISSOULA MT
1103 AM MDT THU JUL 24 2014

Montana AWOS Reports

LAUREL      |K6S8 241655Z AUTO 00000KT 40SM 28/15 A2984 RMK AO1 T02780150
ROUNDUP     |KRPX 241655Z AUTO 00000KT 40SM 26/16 A2977 RMK AO1 T02560161






000
SXUS55 KMSO 241654
OSOMSO
MONTANA AWOS SUMMARY
NATIONAL WEATHER SERVICE MISSOULA MT
1053 AM MDT THU JUL 24 2014

Montana AWOS Reports

LAUREL      |K6S8 241635Z AUTO 00000KT 25SM 27/15 A2985 RMK AO1 T02720150
PLAINS      |KS34 241555Z AUTO 22008KT 180V260 40SM 15/03 A3012 RMK AO1 T01500033






000
SXUS55 KMSO 241643
OSOMSO
MONTANA AWOS SUMMARY
NATIONAL WEATHER SERVICE MISSOULA MT
1043 AM MDT THU JUL 24 2014

Montana AWOS Reports

ROUNDUP     |KRPX 241635Z AUTO 00000KT 40SM 25/16 A2978 RMK AO1 T02500156
MALTA       |KM75 241635Z AUTO 00000KT 40SM 25/17 A2977 RMK AO1 T02500167






000
SXUS55 KMSO 241623
OSOMSO
MONTANA AWOS SUMMARY
NATIONAL WEATHER SERVICE MISSOULA MT
1023 AM MDT THU JUL 24 2014

Montana AWOS Reports

LAUREL      |K6S8 241615Z AUTO 00000KT 25SM 26/15 A2985 RMK AO1 T02610150
ROUNDUP     |KRPX 241615Z AUTO 00000KT 40SM 24/16 A2978 RMK AO1 T02440161
MALTA       |KM75 241615Z AUTO 00000KT 40SM 25/17 A2978 RMK AO1 T02500172






000
SXUS55 KMSO 241604
OSOMSO
MONTANA AWOS SUMMARY
NATIONAL WEATHER SERVICE MISSOULA MT
1003 AM MDT THU JUL 24 2014

Montana AWOS Reports

LAUREL      |K6S8 241555Z AUTO 00000KT 25SM 25/15 A2986 RMK AO1 T02500150
ROUNDUP     |KRPX 241555Z AUTO 00000KT 40SM 23/15 A2978 RMK AO1 T02330150






000
SXUS55 KMSO 241553
OSOMSO
MONTANA AWOS SUMMARY
NATIONAL WEATHER SERVICE MISSOULA MT
953 AM MDT THU JUL 24 2014

Montana AWOS Reports

LAUREL      |K6S8 241535Z AUTO 00000KT 25SM 24/15 A2986 RMK AO1 T02440150
ROUNDUP     |KRPX 241535Z AUTO 00000KT 40SM 23/16 A2979 RMK AO1 T02280156
MALTA       |KM75 241535Z AUTO 00000KT 40SM 23/17 A2978 RMK AO1 T02330167






000
SXUS55 KMSO 241533
OSOMSO
MONTANA AWOS SUMMARY
NATIONAL WEATHER SERVICE MISSOULA MT
933 AM MDT THU JUL 24 2014

Montana AWOS Reports

PLAINS      |KS34 241455Z AUTO 25006KT 40SM 15/04 A3011 RMK AO1 T01500039






000
SXUS55 KMSO 241523
OSOMSO
MONTANA AWOS SUMMARY
NATIONAL WEATHER SERVICE MISSOULA MT
923 AM MDT THU JUL 24 2014

Montana AWOS Reports

ROUNDUP     |KRPX 241515Z AUTO 01006KT 40SM 21/14 A2979 RMK AO1 T02110144
LAUREL      |K6S8 241515Z AUTO 00000KT 40SM 23/14 A2986 RMK AO1 T02330144
MALTA       |KM75 241515Z AUTO 00000KT 40SM 22/16 A2978 RMK AO1 T02220161






000
SXUS55 KMSO 241504
OSOMSO
MONTANA AWOS SUMMARY
NATIONAL WEATHER SERVICE MISSOULA MT
903 AM MDT THU JUL 24 2014

Montana AWOS Reports

LAUREL      |K6S8 241455Z AUTO 15004KT 15SM 22/15 A2987 RMK AO1 T02220150
ROUNDUP     |KRPX 241455Z AUTO 01005KT 40SM 21/14 A2979 RMK AO1 T02110144






000
SXUS55 KMSO 241443
OSOMSO
MONTANA AWOS SUMMARY
NATIONAL WEATHER SERVICE MISSOULA MT
843 AM MDT THU JUL 24 2014

Montana AWOS Reports

LAUREL      |K6S8 241435Z AUTO 19005KT 25SM 21/14 A2988 RMK AO1 T02110139
ROUNDUP     |KRPX 241435Z AUTO 34005KT 40SM 21/14 A2979 RMK AO1 T02110144






000
SXUS55 KMSO 241423
OSOMSO
MONTANA AWOS SUMMARY
NATIONAL WEATHER SERVICE MISSOULA MT
823 AM MDT THU JUL 24 2014

Montana AWOS Reports

LAUREL      |K6S8 241415Z AUTO 18005KT 25SM 20/14 A2988 RMK AO1 T02000139
ROUNDUP     |KRPX 241415Z AUTO 05016KT 40SM 21/15 A2977 RMK AO1 T02110150
MALTA       |KM75 241415Z AUTO 00000KT 40SM 21/15 A2978 RMK AO1 T02060150






000
SXUS55 KMSO 241413
OSOMSO
MONTANA AWOS SUMMARY
NATIONAL WEATHER SERVICE MISSOULA MT
813 AM MDT THU JUL 24 2014

Montana AWOS Reports

LAUREL      |K6S8 241355Z AUTO 00000KT 25SM 19/14 A2987 RMK AO1 T01940144






000
SXUS55 KMSO 241403
OSOMSO
MONTANA AWOS SUMMARY
NATIONAL WEATHER SERVICE MISSOULA MT
803 AM MDT THU JUL 24 2014

Montana AWOS Reports

ROUNDUP     |KRPX 241355Z AUTO 00000KT 40SM 21/14 A2982 RMK AO1 T02110144






000
SXUS55 KMSO 241343
OSOMSO
MONTANA AWOS SUMMARY
NATIONAL WEATHER SERVICE MISSOULA MT
743 AM MDT THU JUL 24 2014

Montana AWOS Reports

LAUREL      |K6S8 241335Z AUTO 00000KT 25SM 18/13 A2988 RMK AO1 T01830133
ROUNDUP     |KRPX 241335Z AUTO 35011KT 40SM 21/14 A2979 RMK AO1 T02110139






000
SXUS55 KMSO 241324
OSOMSO
MONTANA AWOS SUMMARY
NATIONAL WEATHER SERVICE MISSOULA MT
723 AM MDT THU JUL 24 2014

Montana AWOS Reports

LAUREL      |K6S8 241315Z AUTO 22004KT 25SM 17/13 A2987 RMK AO1 T01720128
ROUNDUP     |KRPX 241315Z AUTO 17009G13KT 080V260 40SM 21/13 A2980 RMK AO1 T02060128






000
SXUS55 KMSO 241313
OSOMSO
MONTANA AWOS SUMMARY
NATIONAL WEATHER SERVICE MISSOULA MT
713 AM MDT THU JUL 24 2014

Montana AWOS Reports

SCOBEY      |K9S2 241255Z AUTO 12009KT 17/12 A2981 RMK AO1 T01670117
EKALAKA     |K97M 241255Z AUTO 10010G16KT 40SM 24/16 A2981 RMK AO1 T02390161
PLAINS      |KS34 241255Z AUTO 24012G16KT 40SM 16/03 A3006 RMK AO1 T01610033






000
SXUS55 KMSO 241304
OSOMSO
MONTANA AWOS SUMMARY
NATIONAL WEATHER SERVICE MISSOULA MT
703 AM MDT THU JUL 24 2014

Montana AWOS Reports

LAUREL      |K6S8 241255Z AUTO 21004KT 25SM 17/13 A2987 RMK AO1 T01720133
ROUNDUP     |KRPX 241255Z AUTO 34006KT 40SM 21/12 A2980 RMK AO1 T02060122
MALTA       |KM75 241255Z AUTO 00000KT 40SM 17/14 A2979 RMK AO1 T01720139






000
SXUS55 KMSO 241253
OSOMSO
MONTANA AWOS SUMMARY
NATIONAL WEATHER SERVICE MISSOULA MT
653 AM MDT THU JUL 24 2014

Montana AWOS Reports

LAUREL      |K6S8 241235Z AUTO 00000KT 25SM 17/13 A2985 RMK AO1 T01720133
ROUNDUP     |KRPX 241235Z AUTO 34008KT 40SM 20/10 A2979 RMK AO1 T02000100






000
SXUS55 KMSO 241243
OSOMSO
MONTANA AWOS SUMMARY
NATIONAL WEATHER SERVICE MISSOULA MT
643 AM MDT THU JUL 24 2014

Montana AWOS Reports

MALTA       |KM75 241235Z AUTO 00000KT 40SM 17/14 A2979 RMK AO1 T01670139






000
SXUS55 KMSO 241223
OSOMSO
MONTANA AWOS SUMMARY
NATIONAL WEATHER SERVICE MISSOULA MT
623 AM MDT THU JUL 24 2014

Montana AWOS Reports

LAUREL      |K6S8 241215Z AUTO 00000KT 15SM 16/12 A2985 RMK AO1 T01610122
ROUNDUP     |KRPX 241215Z AUTO 00000KT 40SM 20/12 A2980 RMK AO1 T02000117






000
SXUS55 KMSO 241213
OSOMSO
MONTANA AWOS SUMMARY
NATIONAL WEATHER SERVICE MISSOULA MT
613 AM MDT THU JUL 24 2014

Montana AWOS Reports

LAUREL      |K6S8 241155Z AUTO 00000KT 25SM 16/13 A2984 RMK AO1 T01610128
ROUNDUP     |KRPX 241155Z AUTO 00000KT 40SM 20/12 A2979 RMK AO1 T02000117
SCOBEY      |K9S2 241155Z AUTO 00000KT 17/12 A2981 RMK AO1 T01670117
EKALAKA     |K97M 241155Z AUTO 13017G25KT 40SM 23/14 A2980 RMK AO1 T02280144
PLAINS      |KS34 241155Z AUTO 00000KT 40SM 16/06 A3005 RMK AO1 T01610056






000
SXUS55 KMSO 241203
OSOMSO
MONTANA AWOS SUMMARY
NATIONAL WEATHER SERVICE MISSOULA MT
602 AM MDT THU JUL 24 2014

Montana AWOS Reports

MALTA       |KM75 241155Z AUTO 00000KT 40SM 16/13 A2978 RMK AO1 T01610128






000
SXUS55 KMSO 241144
OSOMSO
MONTANA AWOS SUMMARY
NATIONAL WEATHER SERVICE MISSOULA MT
543 AM MDT THU JUL 24 2014

Montana AWOS Reports

LAUREL      |K6S8 241135Z AUTO 22004KT 15SM 16/13 A2984 RMK AO1 T01610128
ROUNDUP     |KRPX 241135Z AUTO 34005KT 40SM 20/11 A2978 RMK AO1 T02000111
MALTA       |KM75 241135Z AUTO 00000KT 40SM 16/12 A2979 RMK AO1 T01610122






000
SXUS55 KMSO 241133
OSOMSO
MONTANA AWOS SUMMARY
NATIONAL WEATHER SERVICE MISSOULA MT
533 AM MDT THU JUL 24 2014

Montana AWOS Reports

SCOBEY      |K9S2 241055Z AUTO 03009G15KT 19/12 A2982 RMK AO1 T01940117
EKALAKA     |K97M 241055Z AUTO 13017G21KT 40SM 23/14 A2981 RMK AO1 T02330139






000
SXUS55 KMSO 241123
OSOMSO
MONTANA AWOS SUMMARY
NATIONAL WEATHER SERVICE MISSOULA MT
523 AM MDT THU JUL 24 2014

Montana AWOS Reports

LAUREL      |K6S8 241115Z AUTO 21004KT 15SM 17/13 A2984 RMK AO1 T01670128
ROUNDUP     |KRPX 241115Z AUTO 34004KT 40SM 19/10 A2978 RMK AO1 T01940100
MALTA       |KM75 241115Z AUTO 00000KT 40SM 17/13 A2978 RMK AO1 T01670128






000
SXUS55 KMSO 241114
OSOMSO
MONTANA AWOS SUMMARY
NATIONAL WEATHER SERVICE MISSOULA MT
513 AM MDT THU JUL 24 2014

Montana AWOS Reports

PLAINS      |KS34 241055Z AUTO 00000KT 40SM 16/06 A3005 RMK AO1 T01610061






000
SXUS55 KMSO 241103
OSOMSO
MONTANA AWOS SUMMARY
NATIONAL WEATHER SERVICE MISSOULA MT
502 AM MDT THU JUL 24 2014

Montana AWOS Reports

ROUNDUP     |KRPX 241055Z AUTO 00000KT 40SM 20/11 A2977 RMK AO1 T02000106
MALTA       |KM75 241055Z AUTO 00000KT 40SM 17/13 A2978 RMK AO1 T01720128






000
SXUS55 KMSO 241043
OSOMSO
MONTANA AWOS SUMMARY
NATIONAL WEATHER SERVICE MISSOULA MT
443 AM MDT THU JUL 24 2014

Montana AWOS Reports

LAUREL      |K6S8 241035Z AUTO 00000KT 25SM 18/13 A2984 RMK AO1 T01780133
ROUNDUP     |KRPX 241035Z AUTO 34005KT 40SM 20/11 A2977 RMK AO1 T02000106
MALTA       |KM75 241035Z AUTO 00000KT 40SM 18/13 A2978 RMK AO1 T01780133






000
SXUS55 KMSO 241023
OSOMSO
MONTANA AWOS SUMMARY
NATIONAL WEATHER SERVICE MISSOULA MT
423 AM MDT THU JUL 24 2014

Montana AWOS Reports

LAUREL      |K6S8 241015Z AUTO 27004KT 25SM 18/14 A2983 RMK AO1 T01830139
ROUNDUP     |KRPX 241015Z AUTO 31004KT 40SM 19/10 A2976 RMK AO1 T01940100






000
SXUS55 KMSO 241004
OSOMSO
MONTANA AWOS SUMMARY
NATIONAL WEATHER SERVICE MISSOULA MT
403 AM MDT THU JUL 24 2014

Montana AWOS Reports

LAUREL      |K6S8 240955Z AUTO 00000KT 25SM 19/14 A2983 RMK AO1 T01890139
ROUNDUP     |KRPX 240955Z AUTO 00000KT 40SM 18/10 A2975 RMK AO1 T01830100
MALTA       |KM75 240955Z AUTO 00000KT 40SM 19/14 A2979 RMK AO1 T01890139
SCOBEY      |K9S2 240955Z AUTO 00000KT 15/12 A2999 RMK AO1 T01500122
EKALAKA     |K97M 240955Z AUTO 10008KT 40SM 19/13 A2982 RMK AO1 T01940133






000
SXUS55 KMSO 240943
OSOMSO
MONTANA AWOS SUMMARY
NATIONAL WEATHER SERVICE MISSOULA MT
343 AM MDT THU JUL 24 2014

Montana AWOS Reports

LAUREL      |K6S8 240935Z AUTO 00000KT 25SM 18/14 A2983 RMK AO1 T01780139
ROUNDUP     |KRPX 240935Z AUTO 00000KT 40SM 19/11 A2975 RMK AO1 T01940106
SCOBEY      |K9S2 240855Z AUTO 07005KT 20/13 A2986 RMK AO1 T02000128






000
SXUS55 KMSO 240923
OSOMSO
MONTANA AWOS SUMMARY
NATIONAL WEATHER SERVICE MISSOULA MT
323 AM MDT THU JUL 24 2014

Montana AWOS Reports

MALTA       |KM75 240915Z AUTO 03009G16KT 40SM 19/15 A2980 RMK AO1 T01940150
LAUREL      |K6S8 240915Z AUTO 00000KT 25SM 18/14 A2983 RMK AO1 T01780139
ROUNDUP     |KRPX 240915Z AUTO 00000KT 40SM 23/12 A2975 RMK AO1 T02280117






000
SXUS55 KMSO 240913
OSOMSO
MONTANA AWOS SUMMARY
NATIONAL WEATHER SERVICE MISSOULA MT
313 AM MDT THU JUL 24 2014

Montana AWOS Reports

LAUREL      |K6S8 240855Z AUTO 00000KT 25SM 18/14 A2983 RMK AO1 T01830139
ROUNDUP     |KRPX 240855Z AUTO 00000KT 40SM 22/11 A2975 RMK AO1 T02220111
MALTA       |KM75 240855Z AUTO 02008KT 40SM 20/16 A2981 RMK AO1 T02000156
PLAINS      |KS34 240855Z AUTO 00000KT 40SM 18/07 A3005 RMK AO1 T01780067






000
SXUS55 KMSO 240903
OSOMSO
MONTANA AWOS SUMMARY
NATIONAL WEATHER SERVICE MISSOULA MT
302 AM MDT THU JUL 24 2014

Montana AWOS Reports

EKALAKA     |K97M 240855Z AUTO 11011G17KT 40SM 24/11 A2984 RMK AO1 T02440111






000
SXUS55 KMSO 240844
OSOMSO
MONTANA AWOS SUMMARY
NATIONAL WEATHER SERVICE MISSOULA MT
243 AM MDT THU JUL 24 2014

Montana AWOS Reports

LAUREL      |K6S8 240835Z AUTO 00000KT 25SM 19/14 A2984 RMK AO1 T01890139
ROUNDUP     |KRPX 240835Z AUTO 00000KT 40SM 23/11 A2976 RMK AO1 T02280111






000
SXUS55 KMSO 240823
OSOMSO
MONTANA AWOS SUMMARY
NATIONAL WEATHER SERVICE MISSOULA MT
223 AM MDT THU JUL 24 2014

Montana AWOS Reports

MALTA       |KM75 240815Z AUTO 35010G15KT 40SM 20/15 A2980 RMK AO1 T02000150
LAUREL      |K6S8 240815Z AUTO 00000KT 25SM 19/14 A2985 RMK AO1 T01890139
ROUNDUP     |KRPX 240815Z AUTO 00000KT 40SM 23/11 A2976 RMK AO1 T02330111






000
SXUS55 KMSO 240803
OSOMSO
MONTANA AWOS SUMMARY
NATIONAL WEATHER SERVICE MISSOULA MT
203 AM MDT THU JUL 24 2014

Montana AWOS Reports

LAUREL      |K6S8 240755Z AUTO 00000KT 25SM 19/14 A2985 RMK AO1 T01890139
ROUNDUP     |KRPX 240755Z AUTO 00000KT 40SM 23/11 A2978 RMK AO1 T02330111
MALTA       |KM75 240755Z AUTO 04007KT 40SM 21/17 A2984 RMK AO1 T02110167
SCOBEY      |K9S2 240755Z AUTO 09011G20KT 21/14 A2985 RMK AO1 T02060139
EKALAKA     |K97M 240755Z AUTO 11010KT 40SM 19/14 A2988 RMK AO1 T01940144
PLAINS      |KS34 240755Z AUTO 27005KT 40SM 19/08 A3004 RMK AO1 T01890078






000
SXUS55 KMSO 240753
OSOMSO
MONTANA AWOS SUMMARY
NATIONAL WEATHER SERVICE MISSOULA MT
153 AM MDT THU JUL 24 2014

Montana AWOS Reports

LAUREL      |K6S8 240735Z AUTO 00000KT 25SM 19/14 A2986 RMK AO1 T01940144
MALTA       |KM75 240735Z AUTO 03005KT 25SM 22/18 A2981 RMK AO1 T02170178






000
SXUS55 KMSO 240743
OSOMSO
MONTANA AWOS SUMMARY
NATIONAL WEATHER SERVICE MISSOULA MT
143 AM MDT THU JUL 24 2014

Montana AWOS Reports

ROUNDUP     |KRPX 240735Z AUTO 40SM 23/12 A2979 RMK AO1 T02280117






000
SXUS55 KMSO 240723
OSOMSO
MONTANA AWOS SUMMARY
NATIONAL WEATHER SERVICE MISSOULA MT
123 AM MDT THU JUL 24 2014

Montana AWOS Reports

LAUREL      |K6S8 240715Z AUTO 00000KT 25SM 20/14 A2986 RMK AO1 T02000144
ROUNDUP     |KRPX 240715Z AUTO 35005KT 40SM 23/13 A2980 RMK AO1 T02280128






000
SXUS55 KMSO 240703
OSOMSO
MONTANA AWOS SUMMARY
NATIONAL WEATHER SERVICE MISSOULA MT
103 AM MDT THU JUL 24 2014

Montana AWOS Reports

ROUNDUP     |KRPX 240655Z AUTO 00000KT 40SM 22/13 A2981 RMK AO1 T02220133
SCOBEY      |K9S2 240655Z AUTO 09013KT 21/14 A2991 RMK AO1 T02110139
PLAINS      |KS34 240655Z AUTO 27009G13KT 40SM 20/09 A3003 RMK AO1 T02000089
LAUREL      |K6S8 240655Z AUTO 00000KT 25SM 21/15 A2987 RMK AO1 T02060150
MALTA       |KM75 240655Z AUTO 07004KT 40SM 24/17 A2980 RMK AO1 T02440172
EKALAKA     |K97M 240655Z AUTO 13013G18KT 40SM 21/15 A2989 RMK AO1 T02060150






000
SXUS55 KMSO 240644
OSOMSO
MONTANA AWOS SUMMARY
NATIONAL WEATHER SERVICE MISSOULA MT
1243 AM MDT THU JUL 24 2014

Montana AWOS Reports

LAUREL      |K6S8 240635Z AUTO 00000KT 25SM 21/16 A2987 RMK AO1 T02110156
ROUNDUP     |KRPX 240635Z AUTO 25005KT 40SM 25/14 A2981 RMK AO1 T02500144






000
SXUS55 KMSO 240624
OSOMSO
MONTANA AWOS SUMMARY
NATIONAL WEATHER SERVICE MISSOULA MT
1223 AM MDT THU JUL 24 2014

Montana AWOS Reports

LAUREL      |K6S8 240615Z AUTO 00000KT 25SM 23/17 A2987 RMK AO1 T02280167
MALTA       |KM75 240615Z AUTO 00000KT 40SM 25/18 A2982 RMK AO1 T02500178






000
SXUS55 KMSO 240613
OSOMSO
MONTANA AWOS SUMMARY
NATIONAL WEATHER SERVICE MISSOULA MT
1212 AM MDT THU JUL 24 2014

Montana AWOS Reports

ROUNDUP     |KRPX 240555Z AUTO 00000KT 40SM 23/13 A2980 RMK AO1 T02330133
SCOBEY      |K9S2 240555Z AUTO 10013G19KT 22/15 A2995 RMK AO1 T02220150
MALTA       |KM75 240555Z AUTO 07005KT 40SM 25/18 A2981 RMK AO1 T02500178
PLAINS      |KS34 240555Z AUTO 28005KT 25SM 21/12 A3001 RMK AO1 T02060117






000
SXUS55 KMSO 240603
OSOMSO
MONTANA AWOS SUMMARY
NATIONAL WEATHER SERVICE MISSOULA MT
1203 AM MDT THU JUL 24 2014

Montana AWOS Reports

LAUREL      |K6S8 240555Z AUTO 00000KT 40SM 23/16 A2986 RMK AO1 T02280156
EKALAKA     |K97M 240555Z AUTO 12013G18KT 40SM 21/15 A2993 RMK AO1 T02060150






000
SXUS55 KMSO 240543
OSOMSO
MONTANA AWOS SUMMARY
NATIONAL WEATHER SERVICE MISSOULA MT
1143 PM MDT WED JUL 23 2014

Montana AWOS Reports

ROUNDUP     |KRPX 240535Z AUTO 00000KT 40SM 24/13 A2980 RMK AO1 T02440133






000
SXUS55 KMSO 240523
OSOMSO
MONTANA AWOS SUMMARY
NATIONAL WEATHER SERVICE MISSOULA MT
1123 PM MDT WED JUL 23 2014

Montana AWOS Reports

ROUNDUP     |KRPX 240515Z AUTO 00000KT 40SM 24/13 A2981 RMK AO1 T02440133






000
SXUS55 KMSO 240503
OSOMSO
MONTANA AWOS SUMMARY
NATIONAL WEATHER SERVICE MISSOULA MT
1103 PM MDT WED JUL 23 2014

Montana AWOS Reports

LAUREL      |K6S8 240455Z AUTO 00000KT 25SM 24/16 A2988 RMK AO1 T02390156
ROUNDUP     |KRPX 240455Z AUTO 00000KT 40SM 26/13 A2981 RMK AO1 T02560133
MALTA       |KM75 240455Z AUTO 04007KT 40SM 26/18 A2982 RMK AO1 T02560178
SCOBEY      |K9S2 240455Z AUTO 09017KT 23/15 A2996 RMK AO1 T02280150
EKALAKA     |K97M 240455Z AUTO 11012KT 40SM 22/16 A2995 RMK AO1 T02170156
PLAINS      |KS34 240455Z AUTO 29009G13KT 25SM 21/12 A2999 RMK AO1 T02110117
MALTA       |KM75 240455Z AUTO 04007KT 40SM 26/18 A2982 RMK AO1 T02560178






000
SXUS55 KMSO 240444
OSOMSO
MONTANA AWOS SUMMARY
NATIONAL WEATHER SERVICE MISSOULA MT
1043 PM MDT WED JUL 23 2014

Montana AWOS Reports

ROUNDUP     |KRPX 240435Z AUTO 00000KT 40SM 26/13 A2981 RMK AO1 T02610133






000
SXUS55 KMSO 240423
OSOMSO
MONTANA AWOS SUMMARY
NATIONAL WEATHER SERVICE MISSOULA MT
1022 PM MDT WED JUL 23 2014

Montana AWOS Reports

LAUREL      |K6S8 240415Z AUTO 00000KT 40SM 26/16 A2989 RMK AO1 T02560161
ROUNDUP     |KRPX 240415Z AUTO 00000KT 40SM 26/13 A2982 RMK AO1 T02610133
MALTA       |KM75 240415Z AUTO 00000KT 10SM 28/19 A2982 RMK AO1 T02780194






000
SXUS55 KMSO 240403
OSOMSO
MONTANA AWOS SUMMARY
NATIONAL WEATHER SERVICE MISSOULA MT
1003 PM MDT WED JUL 23 2014

Montana AWOS Reports

LAUREL      |K6S8 240355Z AUTO 00000KT 40SM 26/16 A2990 RMK AO1 T02610156
ROUNDUP     |KRPX 240355Z AUTO 00000KT 40SM 28/14 A2983 RMK AO1 T02780139
SCOBEY      |K9S2 240355Z AUTO 08013G19KT 24/15 A2996 RMK AO1 T02390150
MALTA       |KM75 240355Z AUTO 03008KT 40SM 28/17 A2981 RMK AO1 T02780167
EKALAKA     |K97M 240355Z AUTO 10010G16KT 40SM 23/15 A2999 RMK AO1 T02330150
PLAINS      |KS34 240355Z AUTO 27011G17KT 25SM 22/12 A2998 RMK AO1 T02170117






000
SXUS55 KMSO 240344
OSOMSO
MONTANA AWOS SUMMARY
NATIONAL WEATHER SERVICE MISSOULA MT
943 PM MDT WED JUL 23 2014

Montana AWOS Reports

ROUNDUP     |KRPX 240335Z AUTO 00000KT 40SM 28/13 A2983 RMK AO1 T02830133






000
SXUS55 KMSO 240344
OSOMSO
MONTANA AWOS SUMMARY
NATIONAL WEATHER SERVICE MISSOULA MT
943 PM MDT WED JUL 23 2014

Montana AWOS Reports

ROUNDUP     |KRPX 240335Z AUTO 00000KT 40SM 28/13 A2983 RMK AO1 T02830133






000
SXUS55 KMSO 240333
OSOMSO
MONTANA AWOS SUMMARY
NATIONAL WEATHER SERVICE MISSOULA MT
932 PM MDT WED JUL 23 2014

Montana AWOS Reports

MALTA       |KM75 240255Z AUTO 06005KT 40SM 30/16 A2981 RMK AO1 T03000161






000
SXUS55 KMSO 240323
OSOMSO
MONTANA AWOS SUMMARY
NATIONAL WEATHER SERVICE MISSOULA MT
923 PM MDT WED JUL 23 2014

Montana AWOS Reports

LAUREL      |K6S8 240315Z AUTO 00000KT 40SM 26/15 A2990 RMK AO1 T02610150
ROUNDUP     |KRPX 240315Z AUTO 00000KT 40SM 29/13 A2983 RMK AO1 T02890133






000
SXUS55 KMSO 240303
OSOMSO
MONTANA AWOS SUMMARY
NATIONAL WEATHER SERVICE MISSOULA MT
903 PM MDT WED JUL 23 2014

Montana AWOS Reports

LAUREL      |K6S8 240255Z AUTO 00000KT 40SM 27/16 A2990 RMK AO1 T02670156
ROUNDUP     |KRPX 240255Z AUTO 00000KT 40SM 29/13 A2983 RMK AO1 T02940133
SCOBEY      |K9S2 240255Z AUTO 08014G18KT 25/16 A2997 RMK AO1 T02500156
EKALAKA     |K97M 240255Z AUTO 09006KT 40SM 24/14 A2999 RMK AO1 T02440144
PLAINS      |KS34 240255Z AUTO 27010G20KT 40SM 23/11 A2993 RMK AO1 T02330111






000
SXUS55 KMSO 240243
OSOMSO
MONTANA AWOS SUMMARY
NATIONAL WEATHER SERVICE MISSOULA MT
843 PM MDT WED JUL 23 2014

Montana AWOS Reports

ROUNDUP     |KRPX 240235Z AUTO 00000KT 40SM 29/13 A2984 RMK AO1 T02940133






000
SXUS55 KMSO 240223
OSOMSO
MONTANA AWOS SUMMARY
NATIONAL WEATHER SERVICE MISSOULA MT
822 PM MDT WED JUL 23 2014

Montana AWOS Reports

LAUREL      |K6S8 240215Z AUTO 00000KT 40SM 29/16 A2992 RMK AO1 T02890161
ROUNDUP     |KRPX 240215Z AUTO 00000KT 40SM 30/13 A2984 RMK AO1 T03000128






000
SXUS55 KMSO 240213
OSOMSO
MONTANA AWOS SUMMARY
NATIONAL WEATHER SERVICE MISSOULA MT
813 PM MDT WED JUL 23 2014

Montana AWOS Reports

SCOBEY      |K9S2 240155Z AUTO 08012G17KT 27/16 A2999 RMK AO1 T02720161
MALTA       |KM75 240155Z AUTO 00000KT 40SM 32/16 A2985 RMK AO1 T03170156
EKALAKA     |K97M 240155Z AUTO 09014G19KT 40SM 27/15 A2999 RMK AO1 T02670150






000
SXUS55 KMSO 240203
OSOMSO
MONTANA AWOS SUMMARY
NATIONAL WEATHER SERVICE MISSOULA MT
803 PM MDT WED JUL 23 2014

Montana AWOS Reports

LAUREL      |K6S8 240155Z AUTO 00000KT 40SM 30/17 A2993 RMK AO1 T03000167
ROUNDUP     |KRPX 240155Z AUTO 00000KT 40SM 31/13 A2986 RMK AO1 T03060133
PLAINS      |KS34 240155Z AUTO 26010G23KT 25SM 27/11 A2987 RMK AO1 T02720106






000
SXUS55 KMSO 240144
OSOMSO
MONTANA AWOS SUMMARY
NATIONAL WEATHER SERVICE MISSOULA MT
743 PM MDT WED JUL 23 2014

Montana AWOS Reports

MALTA       |KM75 240055Z AUTO 07006KT 40SM 33/16 A2987 RMK AO1 T03330161
LAUREL      |K6S8 240135Z AUTO 01005KT 40SM 31/16 A2993 RMK AO1 T03110161
ROUNDUP     |KRPX 240135Z AUTO 00000KT 40SM 32/13 A2986 RMK AO1 T03170133
MALTA       |KM75 240135Z AUTO 00000KT 40SM 32/16 A2985 RMK AO1 T03220161






000
SXUS55 KMSO 240133
OSOMSO
MONTANA AWOS SUMMARY
NATIONAL WEATHER SERVICE MISSOULA MT
733 PM MDT WED JUL 23 2014

Montana AWOS Reports

SCOBEY      |K9S2 240055Z AUTO 09013G17KT 28/16 A3000 RMK AO1 T02830156






000
SXUS55 KMSO 240124
OSOMSO
MONTANA AWOS SUMMARY
NATIONAL WEATHER SERVICE MISSOULA MT
723 PM MDT WED JUL 23 2014

Montana AWOS Reports

LAUREL      |K6S8 240115Z AUTO 02004KT 40SM 31/15 A2994 RMK AO1 T03110150
ROUNDUP     |KRPX 240115Z AUTO 00000KT 40SM 32/13 A2987 RMK AO1 T03220128
MALTA       |KM75 240115Z AUTO 06007KT 40SM 33/16 A2986 RMK AO1 T03280156






000
SXUS55 KMSO 240113
OSOMSO
MONTANA AWOS SUMMARY
NATIONAL WEATHER SERVICE MISSOULA MT
713 PM MDT WED JUL 23 2014

Montana AWOS Reports

EKALAKA     |K97M 240055Z AUTO 09012G19KT 40SM 29/15 A3000 RMK AO1 T02940150
PLAINS      |KS34 240055Z AUTO 00000KT 25SM 33/10 A2981 RMK AO1 T03280100






000
SXUS55 KMSO 240103
OSOMSO
MONTANA AWOS SUMMARY
NATIONAL WEATHER SERVICE MISSOULA MT
703 PM MDT WED JUL 23 2014

Montana AWOS Reports

LAUREL      |K6S8 240055Z AUTO 03005KT 40SM 32/15 A2994 RMK AO1 T03170150
ROUNDUP     |KRPX 240055Z AUTO 00000KT 40SM 33/13 A2988 RMK AO1 T03280133






000
SXUS55 KMSO 240043
OSOMSO
MONTANA AWOS SUMMARY
NATIONAL WEATHER SERVICE MISSOULA MT
643 PM MDT WED JUL 23 2014

Montana AWOS Reports

LAUREL      |K6S8 240035Z AUTO 00000KT 40SM 32/15 A2995 RMK AO1 T03170150
ROUNDUP     |KRPX 240035Z AUTO 00000KT 40SM 33/12 A2988 RMK AO1 T03280122






000
SXUS55 KMSO 240034
OSOMSO
MONTANA AWOS SUMMARY
NATIONAL WEATHER SERVICE MISSOULA MT
633 PM MDT WED JUL 23 2014

Montana AWOS Reports

MALTA       |KM75 232155Z AUTO 09006KT 40SM 33/15 A2995 RMK AO1 T03330150






000
SXUS55 KMSO 240024
OSOMSO
MONTANA AWOS SUMMARY
NATIONAL WEATHER SERVICE MISSOULA MT
623 PM MDT WED JUL 23 2014

Montana AWOS Reports

LAUREL      |K6S8 240015Z AUTO 03004KT 40SM 32/14 A2996 RMK AO1 T03220139
ROUNDUP     |KRPX 240015Z AUTO 00000KT 40SM 33/12 A2989 RMK AO1 T03280117






000
SXUS55 KMSO 240014
OSOMSO
MONTANA AWOS SUMMARY
NATIONAL WEATHER SERVICE MISSOULA MT
613 PM MDT WED JUL 23 2014

Montana AWOS Reports

SCOBEY      |K9S2 232355Z AUTO 09017G21KT 29/15 A3002 RMK AO1 T02940150
PLAINS      |KS34 232355Z AUTO 11008KT 25SM 32/07 A2981 RMK AO1 T03220072
MALTA       |KM75 232055Z AUTO 09011G21KT 40SM 33/15 A2996 RMK AO1 T03330150






000
SXUS55 KMSO 240004
OSOMSO
MONTANA AWOS SUMMARY
NATIONAL WEATHER SERVICE MISSOULA MT
603 PM MDT WED JUL 23 2014

Montana AWOS Reports

LAUREL      |K6S8 232355Z AUTO 04005KT 40SM 32/13 A2997 RMK AO1 T03220133






000
SXUS55 KMSO 232344
OSOMSO
MONTANA AWOS SUMMARY
NATIONAL WEATHER SERVICE MISSOULA MT
543 PM MDT WED JUL 23 2014

Montana AWOS Reports

LAUREL      |K6S8 232335Z AUTO 05004KT 40SM 32/13 A2998 RMK AO1 T03220133
MALTA       |KM75 232335Z AUTO 00000KT 40SM 34/16 A2991 RMK AO1 T03390156
ROUNDUP     |KRPX 232335Z AUTO 00000KT 40SM 33/13 A2990 RMK AO1 T03280128






000
SXUS55 KMSO 232323
OSOMSO
MONTANA AWOS SUMMARY
NATIONAL WEATHER SERVICE MISSOULA MT
523 PM MDT WED JUL 23 2014

Montana AWOS Reports

LAUREL      |K6S8 232315Z AUTO 00000KT 40SM 32/13 A2998 RMK AO1 T03220133
ROUNDUP     |KRPX 232315Z AUTO 00000KT 40SM 33/14 A2991 RMK AO1 T03280144






000
SXUS55 KMSO 232313
OSOMSO
MONTANA AWOS SUMMARY
NATIONAL WEATHER SERVICE MISSOULA MT
513 PM MDT WED JUL 23 2014

Montana AWOS Reports

EKALAKA     |K97M 232255Z AUTO 11017G24KT 40SM 31/15 A3003 RMK AO1 T03110150






000
SXUS55 KMSO 232304
OSOMSO
MONTANA AWOS SUMMARY
NATIONAL WEATHER SERVICE MISSOULA MT
503 PM MDT WED JUL 23 2014

Montana AWOS Reports

LAUREL      |K6S8 232255Z AUTO 00000KT 40SM 32/13 A2999 RMK AO1 T03170128
ROUNDUP     |KRPX 232255Z AUTO 00000KT 40SM 33/14 A2992 RMK AO1 T03280144






000
SXUS55 KMSO 232243
OSOMSO
MONTANA AWOS SUMMARY
NATIONAL WEATHER SERVICE MISSOULA MT
443 PM MDT WED JUL 23 2014

Montana AWOS Reports

LAUREL      |K6S8 232235Z AUTO 00000KT 40SM 32/13 A3000 RMK AO1 T03170133
ROUNDUP     |KRPX 232235Z AUTO 00000KT 40SM 32/14 A2992 RMK AO1 T03220139
MALTA       |KM75 232235Z AUTO 09010G19KT 40SM 33/15 A2994 RMK AO1 T03330150






000
SXUS55 KMSO 232223
OSOMSO
MONTANA AWOS SUMMARY
NATIONAL WEATHER SERVICE MISSOULA MT
423 PM MDT WED JUL 23 2014

Montana AWOS Reports

LAUREL      |K6S8 232215Z AUTO 00000KT 40SM 32/13 A3000 RMK AO1 T03170128
MALTA       |KM75 232215Z AUTO 08009G17KT 40SM 33/15 A2994 RMK AO1 T03330150
ROUNDUP     |KRPX 232215Z AUTO 00000KT 40SM 32/14 A2993 RMK AO1 T03220139






000
SXUS55 KMSO 232213
OSOMSO
MONTANA AWOS SUMMARY
NATIONAL WEATHER SERVICE MISSOULA MT
413 PM MDT WED JUL 23 2014

Montana AWOS Reports

EKALAKA     |K97M 232155Z AUTO 11012G18KT 40SM 31/16 A3006 RMK AO1 T03110161






000
SXUS55 KMSO 232204
OSOMSO
MONTANA AWOS SUMMARY
NATIONAL WEATHER SERVICE MISSOULA MT
403 PM MDT WED JUL 23 2014

Montana AWOS Reports

ROUNDUP     |KRPX 232155Z AUTO 00000KT 40SM 32/14 A2993 RMK AO1 T03170144
SCOBEY      |K9S2 232155Z AUTO 08012G18KT 30/15 A3006 RMK AO1 T03000150
PLAINS      |KS34 232155Z AUTO 00000KT 15SM 33/12 A2989 RMK AO1 T03330117






000
SXUS55 KMSO 232143
OSOMSO
MONTANA AWOS SUMMARY
NATIONAL WEATHER SERVICE MISSOULA MT
343 PM MDT WED JUL 23 2014

Montana AWOS Reports

MALTA       |KM75 232135Z AUTO 09009G19KT 40SM 33/14 A2996 RMK AO1 T03330139
LAUREL      |K6S8 232135Z AUTO 00000KT 40SM 31/13 A3002 RMK AO1 T03060128
ROUNDUP     |KRPX 232135Z AUTO 00000KT 40SM 31/14 A2994 RMK AO1 T03110139






000
SXUS55 KMSO 232123
OSOMSO
MONTANA AWOS SUMMARY
NATIONAL WEATHER SERVICE MISSOULA MT
323 PM MDT WED JUL 23 2014

Montana AWOS Reports

LAUREL      |K6S8 232115Z AUTO 07004KT 40SM 30/13 A3003 RMK AO1 T03000128
MALTA       |KM75 232115Z AUTO 08010G19KT 40SM 33/15 A2996 RMK AO1 T03330150
ROUNDUP     |KRPX 232115Z AUTO 00000KT 40SM 31/15 A2995 RMK AO1 T03060150






000
SXUS55 KMSO 232113
OSOMSO
MONTANA AWOS SUMMARY
NATIONAL WEATHER SERVICE MISSOULA MT
313 PM MDT WED JUL 23 2014

Montana AWOS Reports

PLAINS      |KS34 232055Z AUTO 00000KT 25SM 32/13 A2993 RMK AO1 T03170128
SCOBEY      |K9S2 232055Z AUTO 08013G20KT 30/14 A3008 RMK AO1 T03000144
EKALAKA     |K97M 232055Z AUTO 09010G18KT 40SM 30/17 A3009 RMK AO1 T03000167






000
SXUS55 KMSO 232103
OSOMSO
MONTANA AWOS SUMMARY
NATIONAL WEATHER SERVICE MISSOULA MT
303 PM MDT WED JUL 23 2014

Montana AWOS Reports

LAUREL      |K6S8 232055Z AUTO 00000KT 40SM 30/13 A3003 RMK AO1 T03000133
MALTA       |KM75 232055Z AUTO 09011G21KT 40SM 33/15 A2996 RMK AO1 T03330150
ROUNDUP     |KRPX 232055Z AUTO 00000KT 40SM 30/14 A2996 RMK AO1 T03000144






000
SXUS55 KMSO 232044
OSOMSO
MONTANA AWOS SUMMARY
NATIONAL WEATHER SERVICE MISSOULA MT
243 PM MDT WED JUL 23 2014

Montana AWOS Reports

ROUNDUP     |KRPX 232035Z AUTO 14004KT 40SM 30/14 A2996 RMK AO1 T03000144
EKALAKA     |K97M 231955Z AUTO 08015G20KT 40SM 28/17 A3010 RMK AO1 T02830172






000
SXUS55 KMSO 232023
OSOMSO
MONTANA AWOS SUMMARY
NATIONAL WEATHER SERVICE MISSOULA MT
223 PM MDT WED JUL 23 2014

Montana AWOS Reports

LAUREL      |K6S8 232015Z AUTO 07004KT 40SM 29/14 A3005 RMK AO1 T02890139
ROUNDUP     |KRPX 232015Z AUTO 08005KT 40SM 30/15 A2997 RMK AO1 T03000150
MALTA       |KM75 232015Z AUTO 09010G15KT 40SM 33/16 A2998 RMK AO1 T03280156






000
SXUS55 KMSO 232004
OSOMSO
MONTANA AWOS SUMMARY
NATIONAL WEATHER SERVICE MISSOULA MT
203 PM MDT WED JUL 23 2014

Montana AWOS Reports

LAUREL      |K6S8 231955Z AUTO 07005KT 40SM 28/15 A3005 RMK AO1 T02830150
ROUNDUP     |KRPX 231955Z AUTO 07005KT 40SM 29/15 A2998 RMK AO1 T02940150
SCOBEY      |K9S2 231955Z AUTO 08013G18KT 29/15 A3011 RMK AO1 T02890150
PLAINS      |KS34 231955Z AUTO 00000KT 25SM 31/13 A2996 RMK AO1 T03110128






000
SXUS55 KMSO 231943
OSOMSO
MONTANA AWOS SUMMARY
NATIONAL WEATHER SERVICE MISSOULA MT
143 PM MDT WED JUL 23 2014

Montana AWOS Reports

LAUREL      |K6S8 231935Z AUTO 00000KT 40SM 28/17 A3006 RMK AO1 T02780167
ROUNDUP     |KRPX 231935Z AUTO 00000KT 40SM 29/16 A2999 RMK AO1 T02890156






000
SXUS55 KMSO 231923
OSOMSO
MONTANA AWOS SUMMARY
NATIONAL WEATHER SERVICE MISSOULA MT
123 PM MDT WED JUL 23 2014

Montana AWOS Reports

LAUREL      |K6S8 231915Z AUTO 00000KT 40SM 28/15 A3006 RMK AO1 T02780150
ROUNDUP     |KRPX 231915Z AUTO 00000KT 40SM 28/16 A2999 RMK AO1 T02830156






000
SXUS55 KMSO 231913
OSOMSO
MONTANA AWOS SUMMARY
NATIONAL WEATHER SERVICE MISSOULA MT
113 PM MDT WED JUL 23 2014

Montana AWOS Reports

PLAINS      |KS34 231755Z AUTO 00000KT 25SM 27/13 A3003 RMK AO1 T02720128
PLAINS      |KS34 231855Z AUTO 00000KT 15SM 28/13 A2999 RMK AO1 T02830128






000
SXUS55 KMSO 231904
OSOMSO
MONTANA AWOS SUMMARY
NATIONAL WEATHER SERVICE MISSOULA MT
103 PM MDT WED JUL 23 2014

Montana AWOS Reports

EKALAKA     |K97M 231755Z AUTO 09009KT 40SM 25/17 A3016 RMK AO1 T02500167
ROUNDUP     |KRPX 231855Z AUTO 00000KT 40SM 28/16 A3000 RMK AO1 T02830156
PLAINS      |KS34 231655Z AUTO 00000KT 25SM 24/13 A3005 RMK AO1 T02440128
LAUREL      |K6S8 231855Z AUTO 00000KT 40SM 27/14 A3007 RMK AO1 T02670139






000
SXUS55 KMSO 231853
OSOMSO
MONTANA AWOS SUMMARY
NATIONAL WEATHER SERVICE MISSOULA MT
1252 PM MDT WED JUL 23 2014

Montana AWOS Reports

SCOBEY      |K9S2 231755Z AUTO 08010G16KT 28/14 A3016 RMK AO1 T02780139
EKALAKA     |K97M 231655Z AUTO 13008KT 40SM 26/16 A3018 RMK AO1 T02560161






000
SXUS55 KMSO 231843
OSOMSO
MONTANA AWOS SUMMARY
NATIONAL WEATHER SERVICE MISSOULA MT
1243 PM MDT WED JUL 23 2014

Montana AWOS Reports

LAUREL      |K6S8 231835Z AUTO 07004KT 40SM 26/15 A3008 RMK AO1 T02560150
ROUNDUP     |KRPX 231835Z AUTO 00000KT 40SM 27/16 A3001 RMK AO1 T02720156






000
SXUS55 KMSO 231824
OSOMSO
MONTANA AWOS SUMMARY
NATIONAL WEATHER SERVICE MISSOULA MT
1223 PM MDT WED JUL 23 2014

Montana AWOS Reports

LAUREL      |K6S8 231815Z AUTO 06005KT 40SM 26/16 A3008 RMK AO1 T02560161
MALTA       |KM75 231815Z AUTO 06010G14KT 40SM 30/15 A3004 RMK AO1 T03000150
ROUNDUP     |KRPX 231815Z AUTO 00000KT 40SM 27/16 A3002 RMK AO1 T02670156
EKALAKA     |K97M 231555Z AUTO 00000KT 40SM 24/16 A3019 RMK AO1 T02440161






000
SXUS55 KMSO 231803
OSOMSO
MONTANA AWOS SUMMARY
NATIONAL WEATHER SERVICE MISSOULA MT
1203 PM MDT WED JUL 23 2014

Montana AWOS Reports

ROUNDUP     |KRPX 231755Z AUTO 00000KT 40SM 27/16 A3002 RMK AO1 T02670156






000
SXUS55 KMSO 231743
OSOMSO
MONTANA AWOS SUMMARY
NATIONAL WEATHER SERVICE MISSOULA MT
1143 AM MDT WED JUL 23 2014

Montana AWOS Reports

LAUREL      |K6S8 231735Z AUTO 06004KT 25SM 24/16 A3009 RMK AO1 T02390161
ROUNDUP     |KRPX 231735Z AUTO 00000KT 40SM 26/16 A3003 RMK AO1 T02560156
MALTA       |KM75 231735Z AUTO 06007KT 40SM 29/16 A3007 RMK AO1 T02890156






000
SXUS55 KMSO 231733
OSOMSO
MONTANA AWOS SUMMARY
NATIONAL WEATHER SERVICE MISSOULA MT
1133 AM MDT WED JUL 23 2014

Montana AWOS Reports

SCOBEY      |K9S2 231555Z AUTO 08010KT 24/16 A3018 RMK AO1 T02440156
SCOBEY      |K9S2 231655Z AUTO 10009KT 26/15 A3018 RMK AO1 T02610150






000
SXUS55 KMSO 231723
OSOMSO
MONTANA AWOS SUMMARY
NATIONAL WEATHER SERVICE MISSOULA MT
1123 AM MDT WED JUL 23 2014

Montana AWOS Reports

LAUREL      |K6S8 231715Z AUTO 06004KT 25SM 23/16 A3009 RMK AO1 T02330161
ROUNDUP     |KRPX 231715Z AUTO 07004KT 40SM 25/15 A3003 RMK AO1 T02500150
MALTA       |KM75 231715Z AUTO 05010G14KT 40SM 29/16 A3008 RMK AO1 T02890156






000
SXUS55 KMSO 231703
OSOMSO
MONTANA AWOS SUMMARY
NATIONAL WEATHER SERVICE MISSOULA MT
1103 AM MDT WED JUL 23 2014

Montana AWOS Reports

LAUREL      |K6S8 231655Z AUTO 00000KT 40SM 22/15 A3010 RMK AO1 T02220150
MALTA       |KM75 231655Z AUTO 05009G13KT 40SM 28/16 A3009 RMK AO1 T02780156
ROUNDUP     |KRPX 231655Z AUTO 07005KT 40SM 25/15 A3003 RMK AO1 T02500150






000
SXUS55 KMSO 231653
OSOMSO
MONTANA AWOS SUMMARY
NATIONAL WEATHER SERVICE MISSOULA MT
1053 AM MDT WED JUL 23 2014

Montana AWOS Reports

ROUNDUP     |KRPX 231635Z AUTO 06012KT 40SM 24/15 A3002 RMK AO1 T02440150






000
SXUS55 KMSO 231643
OSOMSO
MONTANA AWOS SUMMARY
NATIONAL WEATHER SERVICE MISSOULA MT
1042 AM MDT WED JUL 23 2014

Montana AWOS Reports

LAUREL      |K6S8 231635Z AUTO 00000KT 40SM 22/14 A3011 RMK AO1 T02170144
MALTA       |KM75 231635Z AUTO 06009G13KT 40SM 27/16 A3010 RMK AO1 T02720161






000
SXUS55 KMSO 231623
OSOMSO
MONTANA AWOS SUMMARY
NATIONAL WEATHER SERVICE MISSOULA MT
1023 AM MDT WED JUL 23 2014

Montana AWOS Reports

ROUNDUP     |KRPX 231615Z AUTO 06010KT 40SM 23/16 A3003 RMK AO1 T02330156






000
SXUS55 KMSO 231613
OSOMSO
MONTANA AWOS SUMMARY
NATIONAL WEATHER SERVICE MISSOULA MT
1013 AM MDT WED JUL 23 2014

Montana AWOS Reports

PLAINS      |KS34 231555Z AUTO 00000KT 25SM 22/13 A3007 RMK AO1 T02170133






000
SXUS55 KMSO 231603
OSOMSO
MONTANA AWOS SUMMARY
NATIONAL WEATHER SERVICE MISSOULA MT
1002 AM MDT WED JUL 23 2014

Montana AWOS Reports

LAUREL      |K6S8 231555Z AUTO 00000KT 40SM 20/13 A3011 RMK AO1 T02000133
ROUNDUP     |KRPX 231555Z AUTO 02007KT 40SM 23/15 A3005 RMK AO1 T02330150
MALTA       |KM75 231555Z AUTO 04006KT 40SM 26/17 A3011 RMK AO1 T02610167






000
SXUS55 KMSO 231543
OSOMSO
MONTANA AWOS SUMMARY
NATIONAL WEATHER SERVICE MISSOULA MT
943 AM MDT WED JUL 23 2014

Montana AWOS Reports

LAUREL      |K6S8 231535Z AUTO 00000KT 40SM 18/13 A3011 RMK AO1 T01830128
MALTA       |KM75 231535Z AUTO 04006KT 40SM 26/17 A3011 RMK AO1 T02560167
ROUNDUP     |KRPX 231535Z AUTO 04008KT 40SM 23/16 A3006 RMK AO1 T02280156






000
SXUS55 KMSO 231534
OSOMSO
MONTANA AWOS SUMMARY
NATIONAL WEATHER SERVICE MISSOULA MT
933 AM MDT WED JUL 23 2014

Montana AWOS Reports

EKALAKA     |K97M 231455Z AUTO 00000KT 40SM 24/16 A3019 RMK AO1 T02390161
PLAINS      |KS34 231455Z AUTO 00000KT 25SM 19/13 A3009 RMK AO1 T01890133






000
SXUS55 KMSO 231523
OSOMSO
MONTANA AWOS SUMMARY
NATIONAL WEATHER SERVICE MISSOULA MT
923 AM MDT WED JUL 23 2014

Montana AWOS Reports

LAUREL      |K6S8 231515Z AUTO 00000KT 40SM 18/12 A3011 RMK AO1 T01780122
ROUNDUP     |KRPX 231515Z AUTO 06009KT 40SM 22/15 A3006 RMK AO1 T02170150
MALTA       |KM75 231515Z AUTO 00000KT 40SM 24/16 A3011 RMK AO1 T02390161






000
SXUS55 KMSO 231504
OSOMSO
MONTANA AWOS SUMMARY
NATIONAL WEATHER SERVICE MISSOULA MT
903 AM MDT WED JUL 23 2014

Montana AWOS Reports

ROUNDUP     |KRPX 231455Z AUTO 06007KT 40SM 21/15 A3006 RMK AO1 T02060150






000
SXUS55 KMSO 231443
OSOMSO
MONTANA AWOS SUMMARY
NATIONAL WEATHER SERVICE MISSOULA MT
843 AM MDT WED JUL 23 2014

Montana AWOS Reports

ROUNDUP     |KRPX 231435Z AUTO 07006KT 40SM 19/15 A3007 RMK AO1 T01940150






000
SXUS55 KMSO 231423
OSOMSO
MONTANA AWOS SUMMARY
NATIONAL WEATHER SERVICE MISSOULA MT
823 AM MDT WED JUL 23 2014

Montana AWOS Reports

LAUREL      |K6S8 231415Z AUTO 20004KT 40SM 17/12 A3013 RMK AO1 T01670122
ROUNDUP     |KRPX 231415Z AUTO 10004KT 40SM 17/14 A3006 RMK AO1 T01720139
MALTA       |KM75 231415Z AUTO 04007KT 40SM 22/16 A3009 RMK AO1 T02170156






000
SXUS55 KMSO 231414
OSOMSO
MONTANA AWOS SUMMARY
NATIONAL WEATHER SERVICE MISSOULA MT
813 AM MDT WED JUL 23 2014

Montana AWOS Reports

SCOBEY      |K9S2 231355Z AUTO 09006KT 19/15 A3021 RMK AO1 T01940150
EKALAKA     |K97M 231355Z AUTO 00000KT 40SM 21/16 A3021 RMK AO1 T02060156
PLAINS      |KS34 231355Z AUTO 25SM 17/14 A3011 RMK AO1 T01670139






000
SXUS55 KMSO 231404
OSOMSO
MONTANA AWOS SUMMARY
NATIONAL WEATHER SERVICE MISSOULA MT
803 AM MDT WED JUL 23 2014

Montana AWOS Reports

LAUREL      |K6S8 231355Z AUTO 00000KT 40SM 16/12 A3013 RMK AO1 T01610122
ROUNDUP     |KRPX 231355Z AUTO 14004KT 40SM 17/14 A3006 RMK AO1 T01670139






000
SXUS55 KMSO 231343
OSOMSO
MONTANA AWOS SUMMARY
NATIONAL WEATHER SERVICE MISSOULA MT
742 AM MDT WED JUL 23 2014

Montana AWOS Reports

ROUNDUP     |KRPX 231335Z AUTO 00000KT 25SM 16/13 A3007 RMK AO1 T01560128
SCOBEY      |K9S2 231255Z AUTO 00000KT 16/12 A3020 RMK AO1 T01560122
PLAINS      |KS34 231255Z AUTO 00000KT 15SM 16/12 A3014 RMK AO1 T01560122
EKALAKA     |K97M 231255Z AUTO 00000KT 40SM 16/14 A3020 RMK AO1 T01610139
MALTA       |KM75 231255Z AUTO 04004KT 40SM 18/13 A3011 RMK AO1 T01830133






000
SXUS55 KMSO 231333
OSOMSO
MONTANA AWOS SUMMARY
NATIONAL WEATHER SERVICE MISSOULA MT
733 AM MDT WED JUL 23 2014

Montana AWOS Reports

ROUNDUP     |KRPX 231315Z AUTO 00000KT 40SM 16/13 A3008 RMK AO1 T01560128






000
SXUS55 KMSO 231324
OSOMSO
MONTANA AWOS SUMMARY
NATIONAL WEATHER SERVICE MISSOULA MT
723 AM MDT WED JUL 23 2014

Montana AWOS Reports

LAUREL      |K6S8 231315Z AUTO 00000KT 25SM 15/12 A3014 RMK AO1 T01500117
MALTA       |KM75 231315Z AUTO 04006KT 40SM 19/14 A3010 RMK AO1 T01940139






000
SXUS55 KMSO 231303
OSOMSO
MONTANA AWOS SUMMARY
NATIONAL WEATHER SERVICE MISSOULA MT
703 AM MDT WED JUL 23 2014

Montana AWOS Reports

ROUNDUP     |KRPX 231255Z AUTO 00000KT 40SM 16/13 A3008 RMK AO1 T01560128






000
SXUS55 KMSO 231244
OSOMSO
MONTANA AWOS SUMMARY
NATIONAL WEATHER SERVICE MISSOULA MT
643 AM MDT WED JUL 23 2014

Montana AWOS Reports

LAUREL      |K6S8 231235Z AUTO 00000KT 25SM 15/12 A3012 RMK AO1 T01500122
ROUNDUP     |KRPX 231235Z AUTO 00000KT 40SM 14/12 A3008 RMK AO1 T01440122






000
SXUS55 KMSO 231223
OSOMSO
MONTANA AWOS SUMMARY
NATIONAL WEATHER SERVICE MISSOULA MT
623 AM MDT WED JUL 23 2014

Montana AWOS Reports

LAUREL      |K6S8 231215Z AUTO 00000KT 25SM 14/12 A3015 RMK AO1 T01440122
ROUNDUP     |KRPX 231215Z AUTO 00000KT 40SM 14/12 A3008 RMK AO1 T01440122
MALTA       |KM75 231215Z AUTO 00000KT 40SM 16/13 A3013 RMK AO1 T01610128






000
SXUS55 KMSO 231203
OSOMSO
MONTANA AWOS SUMMARY
NATIONAL WEATHER SERVICE MISSOULA MT
603 AM MDT WED JUL 23 2014

Montana AWOS Reports

ROUNDUP     |KRPX 231155Z AUTO 00000KT 40SM 14/12 A3008 RMK AO1 T01440117
MALTA       |KM75 231155Z AUTO 00000KT 40SM 15/12 A3014 RMK AO1 T01500117
EKALAKA     |K97M 231155Z AUTO 00000KT 40SM 15/12 A3020 RMK AO1 T01500122
PLAINS      |KS34 231155Z AUTO 00000KT 15SM 16/13 A3016 RMK AO1 T01610128
SCOBEY      |K9S2 231155Z AUTO 00000KT 16/12 A3020 RMK AO1 T01560122






000
SXUS55 KMSO 231144
OSOMSO
MONTANA AWOS SUMMARY
NATIONAL WEATHER SERVICE MISSOULA MT
543 AM MDT WED JUL 23 2014

Montana AWOS Reports

LAUREL      |K6S8 231135Z AUTO 00000KT 25SM 16/13 A3015 RMK AO1 T01560128
ROUNDUP     |KRPX 231135Z AUTO 00000KT 40SM 15/12 A3009 RMK AO1 T01500122






000
SXUS55 KMSO 231123
OSOMSO
MONTANA AWOS SUMMARY
NATIONAL WEATHER SERVICE MISSOULA MT
523 AM MDT WED JUL 23 2014

Montana AWOS Reports

ROUNDUP     |KRPX 231115Z AUTO 00000KT 40SM 15/12 A3009 RMK AO1 T01500122
MALTA       |KM75 231115Z AUTO 00000KT 40SM 16/12 A3014 RMK AO1 T01610117






000
SXUS55 KMSO 231113
OSOMSO
MONTANA AWOS SUMMARY
NATIONAL WEATHER SERVICE MISSOULA MT
513 AM MDT WED JUL 23 2014

Montana AWOS Reports

SCOBEY      |K9S2 231055Z AUTO 00000KT 15/12 A3021 RMK AO1 T01500117






000
SXUS55 KMSO 231103
OSOMSO
MONTANA AWOS SUMMARY
NATIONAL WEATHER SERVICE MISSOULA MT
503 AM MDT WED JUL 23 2014

Montana AWOS Reports

ROUNDUP     |KRPX 231055Z AUTO 00000KT 40SM 16/13 A3009 RMK AO1 T01560128
EKALAKA     |K97M 231055Z AUTO 00000KT 40SM 17/13 A3020 RMK AO1 T01670133
PLAINS      |KS34 231055Z AUTO 00000KT 15SM 16/13 A3018 RMK AO1 T01610128






000
SXUS55 KMSO 231044
OSOMSO
MONTANA AWOS SUMMARY
NATIONAL WEATHER SERVICE MISSOULA MT
443 AM MDT WED JUL 23 2014

Montana AWOS Reports

LAUREL      |K6S8 231035Z AUTO 00000KT 40SM 15/12 A3016 RMK AO1 T01500117
ROUNDUP     |KRPX 231035Z AUTO 00000KT 40SM 15/12 A3009 RMK AO1 T01500122






000
SXUS55 KMSO 231023
OSOMSO
MONTANA AWOS SUMMARY
NATIONAL WEATHER SERVICE MISSOULA MT
423 AM MDT WED JUL 23 2014

Montana AWOS Reports

LAUREL      |K6S8 231015Z AUTO 00000KT 25SM 15/12 A3016 RMK AO1 T01500122
MALTA       |KM75 231015Z AUTO 00000KT 40SM 18/12 A3013 RMK AO1 T01780122
ROUNDUP     |KRPX 231015Z AUTO 00000KT 40SM 16/13 A3009 RMK AO1 T01610128






000
SXUS55 KMSO 231004
OSOMSO
MONTANA AWOS SUMMARY
NATIONAL WEATHER SERVICE MISSOULA MT
403 AM MDT WED JUL 23 2014

Montana AWOS Reports

LAUREL      |K6S8 230955Z AUTO 00000KT 25SM 14/12 A3015 RMK AO1 T01440122
ROUNDUP     |KRPX 230955Z AUTO 00000KT 40SM 16/13 A3010 RMK AO1 T01610128
MALTA       |KM75 230955Z AUTO 00000KT 40SM 18/13 A3013 RMK AO1 T01830128
SCOBEY      |K9S2 230955Z AUTO 00000KT 16/12 A3020 RMK AO1 T01560117
EKALAKA     |K97M 230955Z AUTO 00000KT 40SM 18/14 A3019 RMK AO1 T01830144
PLAINS      |KS34 230955Z AUTO 00000KT 25SM 16/13 A3017 RMK AO1 T01610128






000
SXUS55 KMSO 230943
OSOMSO
MONTANA AWOS SUMMARY
NATIONAL WEATHER SERVICE MISSOULA MT
343 AM MDT WED JUL 23 2014

Montana AWOS Reports

ROUNDUP     |KRPX 230935Z AUTO 00000KT 40SM 17/13 A3011 RMK AO1 T01670128






000
SXUS55 KMSO 230923
OSOMSO
MONTANA AWOS SUMMARY
NATIONAL WEATHER SERVICE MISSOULA MT
323 AM MDT WED JUL 23 2014

Montana AWOS Reports

LAUREL      |K6S8 230915Z AUTO 00000KT 40SM 16/13 A3016 RMK AO1 T01610128
MALTA       |KM75 230915Z AUTO 00000KT 40SM 18/12 A3013 RMK AO1 T01780117
ROUNDUP     |KRPX 230915Z AUTO 00000KT 40SM 17/13 A3011 RMK AO1 T01670128






000
SXUS55 KMSO 230903
OSOMSO
MONTANA AWOS SUMMARY
NATIONAL WEATHER SERVICE MISSOULA MT
303 AM MDT WED JUL 23 2014

Montana AWOS Reports

LAUREL      |K6S8 230855Z AUTO 30004KT 40SM 17/13 A3016 RMK AO1 T01670128
ROUNDUP     |KRPX 230855Z AUTO 00000KT 40SM 17/13 A3012 RMK AO1 T01670128
EKALAKA     |K97M 230855Z AUTO 10006KT 40SM 17/14 A3019 RMK AO1 T01720139
PLAINS      |KS34 230855Z AUTO 00000KT 15SM 16/13 A3016 RMK AO1 T01610128
SCOBEY      |K9S2 230855Z AUTO 00000KT 16/12 A3021 RMK AO1 T01610122






000
SXUS55 KMSO 230844
OSOMSO
MONTANA AWOS SUMMARY
NATIONAL WEATHER SERVICE MISSOULA MT
243 AM MDT WED JUL 23 2014

Montana AWOS Reports

ROUNDUP     |KRPX 230835Z AUTO 00000KT 40SM 17/13 A3012 RMK AO1 T01670133






000
SXUS55 KMSO 230823
OSOMSO
MONTANA AWOS SUMMARY
NATIONAL WEATHER SERVICE MISSOULA MT
222 AM MDT WED JUL 23 2014

Montana AWOS Reports

LAUREL      |K6S8 230815Z AUTO 30005KT 40SM 17/13 A3019 RMK AO1 T01670128
ROUNDUP     |KRPX 230815Z AUTO 00000KT 40SM 17/13 A3014 RMK AO1 T01670128






000
SXUS55 KMSO 230804
OSOMSO
MONTANA AWOS SUMMARY
NATIONAL WEATHER SERVICE MISSOULA MT
203 AM MDT WED JUL 23 2014

Montana AWOS Reports

ROUNDUP     |KRPX 230755Z AUTO 00000KT 40SM 17/13 A3014 RMK AO1 T01720133
MALTA       |KM75 230755Z AUTO 00000KT 40SM 17/12 A3016 RMK AO1 T01720117
EKALAKA     |K97M 230755Z AUTO 11009G14KT 40SM 17/13 A3019 RMK AO1 T01720133
PLAINS      |KS34 230755Z AUTO 00000KT 15SM 16/12 A3016 RMK AO1 T01610122
SCOBEY      |K9S2 230755Z AUTO 00000KT 16/12 A3023 RMK AO1 T01610122






000
SXUS55 KMSO 230743
OSOMSO
MONTANA AWOS SUMMARY
NATIONAL WEATHER SERVICE MISSOULA MT
143 AM MDT WED JUL 23 2014

Montana AWOS Reports

LAUREL      |K6S8 230735Z AUTO 30006KT 40SM 17/13 A3019 RMK AO1 T01670128
ROUNDUP     |KRPX 230735Z AUTO 00000KT 40SM 17/13 A3014 RMK AO1 T01720133






000
SXUS55 KMSO 230723
OSOMSO
MONTANA AWOS SUMMARY
NATIONAL WEATHER SERVICE MISSOULA MT
123 AM MDT WED JUL 23 2014

Montana AWOS Reports

ROUNDUP     |KRPX 230715Z AUTO 00000KT 40SM 18/14 A3015 RMK AO1 T01780139






000
SXUS55 KMSO 230703
OSOMSO
MONTANA AWOS SUMMARY
NATIONAL WEATHER SERVICE MISSOULA MT
103 AM MDT WED JUL 23 2014

Montana AWOS Reports

LAUREL      |K6S8 230655Z AUTO 30004KT 40SM 17/13 A3020 RMK AO1 T01670133
ROUNDUP     |KRPX 230655Z AUTO 00000KT 40SM 19/14 A3015 RMK AO1 T01890139
SCOBEY      |K9S2 230655Z AUTO 00000KT 17/12 A3023 RMK AO1 T01720122
MALTA       |KM75 230655Z AUTO 00000KT 40SM 19/12 A3016 RMK AO1 T01940117
EKALAKA     |K97M 230655Z AUTO 10012G16KT 40SM 18/13 A3020 RMK AO1 T01780133
PLAINS      |KS34 230655Z AUTO 00000KT 15SM 17/13 A3015 RMK AO1 T01720128






000
SXUS55 KMSO 230654
OSOMSO
MONTANA AWOS SUMMARY
NATIONAL WEATHER SERVICE MISSOULA MT
1253 AM MDT WED JUL 23 2014

Montana AWOS Reports

LAUREL      |K6S8 230635Z AUTO 00000KT 40SM 17/13 A3020 RMK AO1 T01670133






000
SXUS55 KMSO 230643
OSOMSO
MONTANA AWOS SUMMARY
NATIONAL WEATHER SERVICE MISSOULA MT
1242 AM MDT WED JUL 23 2014

Montana AWOS Reports

ROUNDUP     |KRPX 230635Z AUTO 00000KT 40SM 19/14 A3014 RMK AO1 T01890139
MALTA       |KM75 230635Z AUTO 00000KT 40SM 19/11 A3016 RMK AO1 T01940111






000
SXUS55 KMSO 230624
OSOMSO
MONTANA AWOS SUMMARY
NATIONAL WEATHER SERVICE MISSOULA MT
1223 AM MDT WED JUL 23 2014

Montana AWOS Reports

LAUREL      |K6S8 230615Z AUTO 00000KT 40SM 17/13 A3020 RMK AO1 T01670133
ROUNDUP     |KRPX 230615Z AUTO 00000KT 40SM 20/14 A3014 RMK AO1 T02000139
MALTA       |KM75 230615Z AUTO 00000KT 40SM 20/12 A3016 RMK AO1 T02000117






000
SXUS55 KMSO 230604
OSOMSO
MONTANA AWOS SUMMARY
NATIONAL WEATHER SERVICE MISSOULA MT
1203 AM MDT WED JUL 23 2014

Montana AWOS Reports

LAUREL      |K6S8 230555Z AUTO 00000KT 40SM 17/13 A3020 RMK AO1 T01670133
ROUNDUP     |KRPX 230555Z AUTO 00000KT 40SM 20/14 A3013 RMK AO1 T02000139
MALTA       |KM75 230555Z AUTO 00000KT 40SM 20/12 A3016 RMK AO1 T02000117
SCOBEY      |K9S2 230555Z AUTO 07006KT 19/12 A3023 RMK AO1 T01890122
EKALAKA     |K97M 230555Z AUTO 12011G19KT 40SM 19/14 A3019 RMK AO1 T01890139






000
SXUS55 KMSO 230554
OSOMSO
MONTANA AWOS SUMMARY
NATIONAL WEATHER SERVICE MISSOULA MT
1153 PM MDT TUE JUL 22 2014

Montana AWOS Reports

ROUNDUP     |KRPX 230535Z AUTO 00000KT 40SM 19/14 A3013 RMK AO1 T01940139
MALTA       |KM75 230535Z AUTO 00000KT 40SM 19/11 A3017 RMK AO1 T01940111






000
SXUS55 KMSO 230543
OSOMSO
MONTANA AWOS SUMMARY
NATIONAL WEATHER SERVICE MISSOULA MT
1142 PM MDT TUE JUL 22 2014

Montana AWOS Reports

LAUREL      |K6S8 230535Z AUTO 00000KT 40SM 17/14 A3021 RMK AO1 T01720139






000
SXUS55 KMSO 230523
OSOMSO
MONTANA AWOS SUMMARY
NATIONAL WEATHER SERVICE MISSOULA MT
1123 PM MDT TUE JUL 22 2014

Montana AWOS Reports

LAUREL      |K6S8 230515Z AUTO 00000KT 40SM 17/14 A3021 RMK AO1 T01720139
ROUNDUP     |KRPX 230515Z AUTO 00000KT 40SM 19/14 A3013 RMK AO1 T01940139
MALTA       |KM75 230515Z AUTO 00000KT 40SM 20/12 A3017 RMK AO1 T02000117
MALTA       |KM75 230455Z AUTO 00000KT 40SM 19/12 A3016 RMK AO1 T01940117






000
SXUS55 KMSO 230503
OSOMSO
MONTANA AWOS SUMMARY
NATIONAL WEATHER SERVICE MISSOULA MT
1103 PM MDT TUE JUL 22 2014

Montana AWOS Reports

ROUNDUP     |KRPX 230455Z AUTO 00000KT 40SM 20/14 A3013 RMK AO1 T02000139
SCOBEY      |K9S2 230455Z AUTO 07010KT 20/12 A3023 RMK AO1 T02000122
EKALAKA     |K97M 230455Z AUTO 12009G13KT 40SM 19/14 A3026 RMK AO1 T01890144
PLAINS      |KS34 230455Z AUTO 00000KT 15SM 18/13 A3014 RMK AO1 T01780128






000
SXUS55 KMSO 230443
OSOMSO
MONTANA AWOS SUMMARY
NATIONAL WEATHER SERVICE MISSOULA MT
1043 PM MDT TUE JUL 22 2014

Montana AWOS Reports

ROUNDUP     |KRPX 230435Z AUTO 06008KT 40SM 21/14 A3013 RMK AO1 T02060139






000
SXUS55 KMSO 230423
OSOMSO
MONTANA AWOS SUMMARY
NATIONAL WEATHER SERVICE MISSOULA MT
1023 PM MDT TUE JUL 22 2014

Montana AWOS Reports

LAUREL      |K6S8 230415Z AUTO 00000KT 40SM 17/13 A3021 RMK AO1 T01720133
ROUNDUP     |KRPX 230415Z AUTO 03005KT 40SM 21/14 A3013 RMK AO1 T02060139






000
SXUS55 KMSO 230403
OSOMSO
MONTANA AWOS SUMMARY
NATIONAL WEATHER SERVICE MISSOULA MT
1003 PM MDT TUE JUL 22 2014

Montana AWOS Reports

ROUNDUP     |KRPX 230355Z AUTO 00000KT 40SM 19/14 A3013 RMK AO1 T01940139
EKALAKA     |K97M 230355Z AUTO 11015G19KT 40SM 18/15 A3021 RMK AO1 T01830150
PLAINS      |KS34 230355Z AUTO 00000KT 25SM 19/13 A3014 RMK AO1 T01890133
SCOBEY      |K9S2 230355Z AUTO 06007KT 20/12 A3023 RMK AO1 T02000117






000
SXUS55 KMSO 230343
OSOMSO
MONTANA AWOS SUMMARY
NATIONAL WEATHER SERVICE MISSOULA MT
943 PM MDT TUE JUL 22 2014

Montana AWOS Reports

LAUREL      |K6S8 230335Z AUTO 00000KT 40SM 17/13 A3021 RMK AO1 T01720133
ROUNDUP     |KRPX 230335Z AUTO 00000KT 40SM 20/14 A3013 RMK AO1 T02000144
MALTA       |KM75 230335Z AUTO 00000KT 40SM 21/11 A3016 RMK AO1 T02110111






000
SXUS55 KMSO 230343
OSOMSO
MONTANA AWOS SUMMARY
NATIONAL WEATHER SERVICE MISSOULA MT
943 PM MDT TUE JUL 22 2014

Montana AWOS Reports

LAUREL      |K6S8 230335Z AUTO 00000KT 40SM 17/13 A3021 RMK AO1 T01720133
ROUNDUP     |KRPX 230335Z AUTO 00000KT 40SM 20/14 A3013 RMK AO1 T02000144
MALTA       |KM75 230335Z AUTO 00000KT 40SM 21/11 A3016 RMK AO1 T02110111






000
SXUS55 KMSO 230323
OSOMSO
MONTANA AWOS SUMMARY
NATIONAL WEATHER SERVICE MISSOULA MT
923 PM MDT TUE JUL 22 2014

Montana AWOS Reports

LAUREL      |K6S8 230315Z AUTO 00000KT 40SM 17/13 A3020 RMK AO1 T01720133
ROUNDUP     |KRPX 230315Z AUTO 00000KT 40SM 21/14 A3013 RMK AO1 T02060144






000
SXUS55 KMSO 230303
OSOMSO
MONTANA AWOS SUMMARY
NATIONAL WEATHER SERVICE MISSOULA MT
903 PM MDT TUE JUL 22 2014

Montana AWOS Reports

ROUNDUP     |KRPX 230255Z AUTO 00000KT 40SM 21/14 A3013 RMK AO1 T02060139
MALTA       |KM75 230255Z AUTO 00000KT 40SM 25/12 A3014 RMK AO1 T02500117
SCOBEY      |K9S2 230255Z AUTO 05005KT 21/12 A3020 RMK AO1 T02060122
EKALAKA     |K97M 230255Z AUTO 10016G29KT 40SM 18/14 A3018 RMK AO1 T01780144
PLAINS      |KS34 230255Z AUTO 00000KT 25SM 21/13 A3013 RMK AO1 T02110133






000
SXUS55 KMSO 230243
OSOMSO
MONTANA AWOS SUMMARY
NATIONAL WEATHER SERVICE MISSOULA MT
843 PM MDT TUE JUL 22 2014

Montana AWOS Reports

LAUREL      |K6S8 230235Z AUTO 00000KT 40SM 19/14 A3019 RMK AO1 T01890144
ROUNDUP     |KRPX 230235Z AUTO 01004KT 40SM 20/14 A3013 RMK AO1 T02000144
MALTA       |KM75 230235Z AUTO 00000KT 40SM 27/12 A3013 RMK AO1 T02670117






000
SXUS55 KMSO 230223
OSOMSO
MONTANA AWOS SUMMARY
NATIONAL WEATHER SERVICE MISSOULA MT
823 PM MDT TUE JUL 22 2014

Montana AWOS Reports

LAUREL      |K6S8 230215Z AUTO 00000KT 40SM 19/14 A3017 RMK AO1 T01940144
ROUNDUP     |KRPX 230215Z AUTO 35005KT 40SM 21/14 A3013 RMK AO1 T02060144






000
SXUS55 KMSO 230213
OSOMSO
MONTANA AWOS SUMMARY
NATIONAL WEATHER SERVICE MISSOULA MT
813 PM MDT TUE JUL 22 2014

Montana AWOS Reports

MALTA       |KM75 230155Z AUTO 00000KT 40SM 28/12 A3011 RMK AO1 T02830117






000
SXUS55 KMSO 230203
OSOMSO
MONTANA AWOS SUMMARY
NATIONAL WEATHER SERVICE MISSOULA MT
803 PM MDT TUE JUL 22 2014

Montana AWOS Reports

LAUREL      |K6S8 230155Z AUTO 08006KT 40SM 19/15 A3016 RMK AO1 T01940150
ROUNDUP     |KRPX 230155Z AUTO 00000KT 40SM 21/13 A3012 RMK AO1 T02060128
SCOBEY      |K9S2 230155Z AUTO 05004KT 22/12 A3020 RMK AO1 T02170122
EKALAKA     |K97M 230155Z AUTO 09014G21KT 40SM 19/16 A3019 RMK AO1 T01890156
PLAINS      |KS34 230155Z AUTO 00000KT 25SM 23/13 A3013 RMK AO1 T02280128






000
SXUS55 KMSO 230143
OSOMSO
MONTANA AWOS SUMMARY
NATIONAL WEATHER SERVICE MISSOULA MT
743 PM MDT TUE JUL 22 2014

Montana AWOS Reports

LAUREL      |K6S8 230135Z AUTO 15004KT 40SM 19/17 A3015 RMK AO1 T01890167
ROUNDUP     |KRPX 230135Z AUTO 27006KT 3SM 20/13 A3012 RMK AO1 T02000128






000
SXUS55 KMSO 230123
OSOMSO
MONTANA AWOS SUMMARY
NATIONAL WEATHER SERVICE MISSOULA MT
723 PM MDT TUE JUL 22 2014

Montana AWOS Reports

LAUREL      |K6S8 230115Z AUTO 34011G22KT 10SM 17/14 A3010 RMK AO1 T01670139
ROUNDUP     |KRPX 230115Z AUTO 00000KT 40SM 28/11 A3011 RMK AO1 T02780111






000
SXUS55 KMSO 230114
OSOMSO
MONTANA AWOS SUMMARY
NATIONAL WEATHER SERVICE MISSOULA MT
713 PM MDT TUE JUL 22 2014

Montana AWOS Reports

MALTA       |KM75 230055Z AUTO 00000KT 40SM 30/12 A3012 RMK AO1 T03000122






000
SXUS55 KMSO 230103
OSOMSO
MONTANA AWOS SUMMARY
NATIONAL WEATHER SERVICE MISSOULA MT
703 PM MDT TUE JUL 22 2014

Montana AWOS Reports

ROUNDUP     |KRPX 230055Z AUTO 00000KT 40SM 28/11 A3009 RMK AO1 T02830106
SCOBEY      |K9S2 230055Z AUTO 05005KT 25/13 A3019 RMK AO1 T02500128
PLAINS      |KS34 230055Z AUTO 26004KT 15SM 23/13 A3014 RMK AO1 T02280128
EKALAKA     |K97M 230055Z AUTO 06013G20KT 40SM 21/16 A3019 RMK AO1 T02060161






000
SXUS55 KMSO 230043
OSOMSO
MONTANA AWOS SUMMARY
NATIONAL WEATHER SERVICE MISSOULA MT
643 PM MDT TUE JUL 22 2014

Montana AWOS Reports

LAUREL      |K6S8 230035Z AUTO 32005KT 40SM 29/11 A3013 RMK AO1 T02890111
ROUNDUP     |KRPX 230035Z AUTO 03004KT 40SM 29/11 A3008 RMK AO1 T02890111
MALTA       |KM75 230035Z AUTO 00000KT 40SM 30/12 A3012 RMK AO1 T03000117






000
SXUS55 KMSO 230033
OSOMSO
MONTANA AWOS SUMMARY
NATIONAL WEATHER SERVICE MISSOULA MT
632 PM MDT TUE JUL 22 2014

Montana AWOS Reports

MALTA       |KM75 222355Z AUTO 00000KT 40SM 30/11 A3012 RMK AO1 T03000111






000
SXUS55 KMSO 230023
OSOMSO
MONTANA AWOS SUMMARY
NATIONAL WEATHER SERVICE MISSOULA MT
623 PM MDT TUE JUL 22 2014

Montana AWOS Reports

LAUREL      |K6S8 230015Z AUTO 02008KT 40SM 29/10 A3012 RMK AO1 T02940100
ROUNDUP     |KRPX 230015Z AUTO 00000KT 40SM 29/11 A3009 RMK AO1 T02890111






000
SXUS55 KMSO 230013
OSOMSO
MONTANA AWOS SUMMARY
NATIONAL WEATHER SERVICE MISSOULA MT
613 PM MDT TUE JUL 22 2014

Montana AWOS Reports

EKALAKA     |K97M 222355Z AUTO 04012G18KT 40SM 25/16 A3019 RMK AO1 T02500161






000
SXUS55 KMSO 230003
OSOMSO
MONTANA AWOS SUMMARY
NATIONAL WEATHER SERVICE MISSOULA MT
603 PM MDT TUE JUL 22 2014

Montana AWOS Reports

LAUREL      |K6S8 222355Z AUTO 03006KT 40SM 31/10 A3012 RMK AO1 T03060100
ROUNDUP     |KRPX 222355Z AUTO 05006KT 40SM 29/11 A3008 RMK AO1 T02940111
SCOBEY      |K9S2 222355Z AUTO 02005KT 26/12 A3019 RMK AO1 T02610122
PLAINS      |KS34 222355Z AUTO 28010G21KT 15SM 26/12 A3011 RMK AO1 T02560122






000
SXUS55 KMSO 222344
OSOMSO
MONTANA AWOS SUMMARY
NATIONAL WEATHER SERVICE MISSOULA MT
543 PM MDT TUE JUL 22 2014

Montana AWOS Reports

ROUNDUP     |KRPX 222335Z AUTO 03007KT 40SM 31/11 A3008 RMK AO1 T03060111
MALTA       |KM75 222335Z AUTO 00000KT 40SM 30/11 A3013 RMK AO1 T03000106






000
SXUS55 KMSO 222333
OSOMSO
MONTANA AWOS SUMMARY
NATIONAL WEATHER SERVICE MISSOULA MT
533 PM MDT TUE JUL 22 2014

Montana AWOS Reports

MALTA       |KM75 222055Z AUTO 00000KT 40SM 28/13 A3014 RMK AO1 T02830133






000
SXUS55 KMSO 222323
OSOMSO
MONTANA AWOS SUMMARY
NATIONAL WEATHER SERVICE MISSOULA MT
523 PM MDT TUE JUL 22 2014

Montana AWOS Reports

ROUNDUP     |KRPX 222315Z AUTO 01008KT 40SM 30/11 A3007 RMK AO1 T03000106
MALTA       |KM75 222315Z AUTO 00000KT 40SM 28/12 A3013 RMK AO1 T02830117






000
SXUS55 KMSO 222313
OSOMSO
MONTANA AWOS SUMMARY
NATIONAL WEATHER SERVICE MISSOULA MT
513 PM MDT TUE JUL 22 2014

Montana AWOS Reports

MALTA       |KM75 221955Z AUTO 00000KT 40SM 27/14 A3015 RMK AO1 T02670139
EKALAKA     |K97M 222255Z AUTO 10013G19KT 40SM 31/13 A3011 RMK AO1 T03060128
SCOBEY      |K9S2 222255Z AUTO 00000KT 26/12 A3020 RMK AO1 T02560117






000
SXUS55 KMSO 222303
OSOMSO
MONTANA AWOS SUMMARY
NATIONAL WEATHER SERVICE MISSOULA MT
503 PM MDT TUE JUL 22 2014

Montana AWOS Reports

PLAINS      |KS34 222255Z AUTO 00000KT 15SM 28/09 A3010 RMK AO1 T02830089
ROUNDUP     |KRPX 222255Z AUTO 00000KT 40SM 30/11 A3008 RMK AO1 T03000106
MALTA       |KM75 222255Z AUTO 00000KT 40SM 28/12 A3013 RMK AO1 T02780122






000
SXUS55 KMSO 222243
OSOMSO
MONTANA AWOS SUMMARY
NATIONAL WEATHER SERVICE MISSOULA MT
443 PM MDT TUE JUL 22 2014

Montana AWOS Reports

ROUNDUP     |KRPX 222235Z AUTO 00000KT 40SM 29/11 A3008 RMK AO1 T02940111






000
SXUS55 KMSO 222223
OSOMSO
MONTANA AWOS SUMMARY
NATIONAL WEATHER SERVICE MISSOULA MT
423 PM MDT TUE JUL 22 2014

Montana AWOS Reports

ROUNDUP     |KRPX 222215Z AUTO 00000KT 40SM 29/11 A3009 RMK AO1 T02890111
EKALAKA     |K97M 222155Z AUTO 10008KT 40SM 31/13 A3013 RMK AO1 T03060128






000
SXUS55 KMSO 222204
OSOMSO
MONTANA AWOS SUMMARY
NATIONAL WEATHER SERVICE MISSOULA MT
403 PM MDT TUE JUL 22 2014

Montana AWOS Reports

ROUNDUP     |KRPX 222155Z AUTO 00000KT 40SM 29/11 A3009 RMK AO1 T02890111
MALTA       |KM75 222155Z AUTO 00000KT 40SM 28/12 A3013 RMK AO1 T02780122
SCOBEY      |K9S2 222155Z AUTO 00000KT 27/12 A3019 RMK AO1 T02670117
PLAINS      |KS34 222155Z AUTO 00000KT 25SM 29/08 A3010 RMK AO1 T02890078






000
SXUS55 KMSO 222143
OSOMSO
MONTANA AWOS SUMMARY
NATIONAL WEATHER SERVICE MISSOULA MT
343 PM MDT TUE JUL 22 2014

Montana AWOS Reports

ROUNDUP     |KRPX 222135Z AUTO 00000KT 40SM 29/11 A3010 RMK AO1 T02890111
MALTA       |KM75 222135Z AUTO 00000KT 40SM 28/12 A3014 RMK AO1 T02830122






000
SXUS55 KMSO 222124
OSOMSO
MONTANA AWOS SUMMARY
NATIONAL WEATHER SERVICE MISSOULA MT
323 PM MDT TUE JUL 22 2014

Montana AWOS Reports

ROUNDUP     |KRPX 222115Z AUTO 00000KT 40SM 28/11 A3010 RMK AO1 T02830106
MALTA       |KM75 222115Z AUTO 00000KT 40SM 28/13 A3014 RMK AO1 T02830133






000
SXUS55 KMSO 222103
OSOMSO
MONTANA AWOS SUMMARY
NATIONAL WEATHER SERVICE MISSOULA MT
303 PM MDT TUE JUL 22 2014

Montana AWOS Reports

ROUNDUP     |KRPX 222055Z AUTO 00000KT 40SM 28/12 A3010 RMK AO1 T02830117
MALTA       |KM75 222055Z AUTO 00000KT 40SM 28/13 A3014 RMK AO1 T02830133
SCOBEY      |K9S2 222055Z AUTO 00000KT 27/12 A3020 RMK AO1 T02670117






000
SXUS55 KMSO 222053
OSOMSO
MONTANA AWOS SUMMARY
NATIONAL WEATHER SERVICE MISSOULA MT
252 PM MDT TUE JUL 22 2014

Montana AWOS Reports

MALTA       |KM75 222035Z AUTO 00000KT 40SM 28/14 A3014 RMK AO1 T02830139






000
SXUS55 KMSO 222043
OSOMSO
MONTANA AWOS SUMMARY
NATIONAL WEATHER SERVICE MISSOULA MT
243 PM MDT TUE JUL 22 2014

Montana AWOS Reports

LAUREL      |K6S8 222035Z AUTO 00000KT 40SM 31/10 A3016 RMK AO1 T03110100
ROUNDUP     |KRPX 222035Z AUTO 00000KT 40SM 28/11 A3011 RMK AO1 T02780111






000
SXUS55 KMSO 222034
OSOMSO
MONTANA AWOS SUMMARY
NATIONAL WEATHER SERVICE MISSOULA MT
233 PM MDT TUE JUL 22 2014

Montana AWOS Reports

SCOBEY      |K9S2 221955Z AUTO 00000KT 25/12 A3020 RMK AO1 T02500117
EKALAKA     |K97M 221955Z AUTO 09009G14KT 40SM 30/13 A3017 RMK AO1 T03000128






000
SXUS55 KMSO 222023
OSOMSO
MONTANA AWOS SUMMARY
NATIONAL WEATHER SERVICE MISSOULA MT
223 PM MDT TUE JUL 22 2014

Montana AWOS Reports

LAUREL      |K6S8 222015Z AUTO 10004KT 40SM 31/09 A3016 RMK AO1 T03060094
ROUNDUP     |KRPX 222015Z AUTO 00000KT 40SM 27/12 A3011 RMK AO1 T02720117






000
SXUS55 KMSO 222004
OSOMSO
MONTANA AWOS SUMMARY
NATIONAL WEATHER SERVICE MISSOULA MT
203 PM MDT TUE JUL 22 2014

Montana AWOS Reports

SCOBEY      |K9S2 010055Z AUTO 34007KT 24/14 A3019 RMK AO1 T02390139
LAUREL      |K6S8 221955Z AUTO 00000KT 40SM 30/09 A3017 RMK AO1 T03000089
EKALAKA     |K97M 221755Z AUTO 10006KT 40SM 29/13 A3018 RMK AO1 T02890128
ROUNDUP     |KRPX 221955Z AUTO 00000KT 40SM 27/12 A3012 RMK AO1 T02720122






000
SXUS55 KMSO 221943
OSOMSO
MONTANA AWOS SUMMARY
NATIONAL WEATHER SERVICE MISSOULA MT
143 PM MDT TUE JUL 22 2014

Montana AWOS Reports

ROUNDUP     |KRPX 221935Z AUTO 02007KT 40SM 27/12 A3012 RMK AO1 T02670122
EKALAKA     |K97M 221655Z AUTO 10007KT 40SM 27/13 A3019 RMK AO1 T02720133






000
SXUS55 KMSO 221933
OSOMSO
MONTANA AWOS SUMMARY
NATIONAL WEATHER SERVICE MISSOULA MT
133 PM MDT TUE JUL 22 2014

Montana AWOS Reports

EKALAKA     |K97M 221555Z AUTO 09006KT 40SM 26/13 A3018 RMK AO1 T02610128
PLAINS      |KS34 221655Z AUTO 27006KT 15SM 18/07 A3016 RMK AO1 T01830067






000
SXUS55 KMSO 221924
OSOMSO
MONTANA AWOS SUMMARY
NATIONAL WEATHER SERVICE MISSOULA MT
123 PM MDT TUE JUL 22 2014

Montana AWOS Reports

LAUREL      |K6S8 221915Z AUTO 00000KT 40SM 29/11 A3016 RMK AO1 T02890106
ROUNDUP     |KRPX 221915Z AUTO 00000KT 40SM 26/12 A3012 RMK AO1 T02560122






000
SXUS55 KMSO 221903
OSOMSO
MONTANA AWOS SUMMARY
NATIONAL WEATHER SERVICE MISSOULA MT
102 PM MDT TUE JUL 22 2014

Montana AWOS Reports

LAUREL      |K6S8 221855Z AUTO 06004KT 40SM 28/11 A3017 RMK AO1 T02830106
ROUNDUP     |KRPX 221855Z AUTO 00000KT 40SM 26/13 A3012 RMK AO1 T02560133






000
SXUS55 KMSO 221853
OSOMSO
MONTANA AWOS SUMMARY
NATIONAL WEATHER SERVICE MISSOULA MT
1253 PM MDT TUE JUL 22 2014

Montana AWOS Reports

EKALAKA     |K97M 221455Z AUTO 08005KT 40SM 26/13 A3017 RMK AO1 T02560128






000
SXUS55 KMSO 221843
OSOMSO
MONTANA AWOS SUMMARY
NATIONAL WEATHER SERVICE MISSOULA MT
1243 PM MDT TUE JUL 22 2014

Montana AWOS Reports

ROUNDUP     |KRPX 221835Z AUTO 02007KT 40SM 25/13 A3012 RMK AO1 T02500133
MALTA       |KM75 221835Z AUTO 00000KT 40SM 27/14 A3015 RMK AO1 T02720144






000
SXUS55 KMSO 221823
OSOMSO
MONTANA AWOS SUMMARY
NATIONAL WEATHER SERVICE MISSOULA MT
1223 PM MDT TUE JUL 22 2014

Montana AWOS Reports

ROUNDUP     |KRPX 221815Z AUTO 01006KT 40SM 25/14 A3012 RMK AO1 T02500144






000
SXUS55 KMSO 221804
OSOMSO
MONTANA AWOS SUMMARY
NATIONAL WEATHER SERVICE MISSOULA MT
1203 PM MDT TUE JUL 22 2014

Montana AWOS Reports

ROUNDUP     |KRPX 221755Z AUTO 03006KT 40SM 24/13 A3012 RMK AO1 T02440133
MALTA       |KM75 221755Z AUTO 00000KT 40SM 26/14 A3015 RMK AO1 T02560139






000
SXUS55 KMSO 221743
OSOMSO
MONTANA AWOS SUMMARY
NATIONAL WEATHER SERVICE MISSOULA MT
1143 AM MDT TUE JUL 22 2014

Montana AWOS Reports

LAUREL      |K6S8 221735Z AUTO 07004KT 40SM 26/12 A3017 RMK AO1 T02610117
ROUNDUP     |KRPX 221735Z AUTO 00000KT 40SM 23/14 A3012 RMK AO1 T02330139






000
SXUS55 KMSO 221733
OSOMSO
MONTANA AWOS SUMMARY
NATIONAL WEATHER SERVICE MISSOULA MT
1133 AM MDT TUE JUL 22 2014

Montana AWOS Reports

ROUNDUP     |KRPX 221715Z AUTO 02005KT 40SM 23/13 A3012 RMK AO1 T02280133
MALTA       |KM75 221715Z AUTO 00000KT 40SM 24/14 A3015 RMK AO1 T02390139






000
SXUS55 KMSO 221723
OSOMSO
MONTANA AWOS SUMMARY
NATIONAL WEATHER SERVICE MISSOULA MT
1123 AM MDT TUE JUL 22 2014

Montana AWOS Reports

LAUREL      |K6S8 221715Z AUTO 03005KT 40SM 26/12 A3017 RMK AO1 T02560122






000
SXUS55 KMSO 221703
OSOMSO
MONTANA AWOS SUMMARY
NATIONAL WEATHER SERVICE MISSOULA MT
1103 AM MDT TUE JUL 22 2014

Montana AWOS Reports

LAUREL      |K6S8 221655Z AUTO 07005KT 40SM 25/12 A3017 RMK AO1 T02500117
ROUNDUP     |KRPX 221655Z AUTO 02004KT 40SM 22/14 A3011 RMK AO1 T02220144
MALTA       |KM75 221655Z AUTO 36006KT 40SM 23/13 A3015 RMK AO1 T02280133






000
SXUS55 KMSO 221644
OSOMSO
MONTANA AWOS SUMMARY
NATIONAL WEATHER SERVICE MISSOULA MT
1043 AM MDT TUE JUL 22 2014

Montana AWOS Reports

LAUREL      |K6S8 221635Z AUTO 00000KT 40SM 24/12 A3017 RMK AO1 T02390117
ROUNDUP     |KRPX 221635Z AUTO 00000KT 40SM 21/13 A3011 RMK AO1 T02110133
MALTA       |KM75 221635Z AUTO 00000KT 40SM 22/14 A3015 RMK AO1 T02220139






000
SXUS55 KMSO 221623
OSOMSO
MONTANA AWOS SUMMARY
NATIONAL WEATHER SERVICE MISSOULA MT
1023 AM MDT TUE JUL 22 2014

Montana AWOS Reports

LAUREL      |K6S8 221615Z AUTO 00000KT 40SM 23/11 A3017 RMK AO1 T02330111
ROUNDUP     |KRPX 221615Z AUTO 32004KT 40SM 21/14 A3010 RMK AO1 T02060144
MALTA       |KM75 221615Z AUTO 36004KT 40SM 21/14 A3015 RMK AO1 T02110139






000
SXUS55 KMSO 221613
OSOMSO
MONTANA AWOS SUMMARY
NATIONAL WEATHER SERVICE MISSOULA MT
1013 AM MDT TUE JUL 22 2014

Montana AWOS Reports

MALTA       |KM75 221355Z AUTO 00000KT 40SM 16/12 A3013 RMK AO1 T01560122






000
SXUS55 KMSO 221604
OSOMSO
MONTANA AWOS SUMMARY
NATIONAL WEATHER SERVICE MISSOULA MT
1003 AM MDT TUE JUL 22 2014

Montana AWOS Reports

PLAINS      |KS34 221455Z AUTO 00000KT 15SM 14/08 A3014 RMK AO1 T01390078
LAUREL      |K6S8 221555Z AUTO 00000KT 40SM 23/11 A3017 RMK AO1 T02280111
ROUNDUP     |KRPX 221555Z AUTO 00000KT 40SM 19/14 A3010 RMK AO1 T01940144
MALTA       |KM75 221555Z AUTO 36004KT 40SM 21/14 A3015 RMK AO1 T02060139
PLAINS      |KS34 221555Z AUTO 00000KT 15SM 16/07 A3014 RMK AO1 T01560067






000
SXUS55 KMSO 221543
OSOMSO
MONTANA AWOS SUMMARY
NATIONAL WEATHER SERVICE MISSOULA MT
943 AM MDT TUE JUL 22 2014

Montana AWOS Reports

LAUREL      |K6S8 221535Z AUTO 00000KT 15SM 22/12 A3017 RMK AO1 T02170122
ROUNDUP     |KRPX 221535Z AUTO 00000KT 40SM 19/14 A3010 RMK AO1 T01940139
MALTA       |KM75 221535Z AUTO 00000KT 40SM 19/14 A3014 RMK AO1 T01940139






000
SXUS55 KMSO 221523
OSOMSO
MONTANA AWOS SUMMARY
NATIONAL WEATHER SERVICE MISSOULA MT
923 AM MDT TUE JUL 22 2014

Montana AWOS Reports

LAUREL      |K6S8 221515Z AUTO 00000KT 40SM 21/12 A3017 RMK AO1 T02110117
ROUNDUP     |KRPX 221515Z AUTO 00000KT 40SM 19/13 A3010 RMK AO1 T01940133
MALTA       |KM75 221515Z AUTO 36004KT 40SM 18/13 A3014 RMK AO1 T01830133






000
SXUS55 KMSO 221504
OSOMSO
MONTANA AWOS SUMMARY
NATIONAL WEATHER SERVICE MISSOULA MT
903 AM MDT TUE JUL 22 2014

Montana AWOS Reports

LAUREL      |K6S8 221455Z AUTO 00000KT 40SM 20/12 A3017 RMK AO1 T02000117
ROUNDUP     |KRPX 221455Z AUTO 00000KT 40SM 19/14 A3010 RMK AO1 T01940139






000
SXUS55 KMSO 221443
OSOMSO
MONTANA AWOS SUMMARY
NATIONAL WEATHER SERVICE MISSOULA MT
843 AM MDT TUE JUL 22 2014

Montana AWOS Reports

ROUNDUP     |KRPX 221435Z AUTO 00000KT 40SM 18/13 A3010 RMK AO1 T01830133
MALTA       |KM75 221435Z AUTO 00000KT 40SM 17/12 A3014 RMK AO1 T01670122






000
SXUS55 KMSO 221423
OSOMSO
MONTANA AWOS SUMMARY
NATIONAL WEATHER SERVICE MISSOULA MT
823 AM MDT TUE JUL 22 2014

Montana AWOS Reports

LAUREL      |K6S8 221415Z AUTO 00000KT 40SM 18/12 A3016 RMK AO1 T01830117
ROUNDUP     |KRPX 221415Z AUTO 00000KT 40SM 18/13 A3010 RMK AO1 T01780133
MALTA       |KM75 221415Z AUTO 00000KT 40SM 17/12 A3014 RMK AO1 T01670122






000
SXUS55 KMSO 221403
OSOMSO
MONTANA AWOS SUMMARY
NATIONAL WEATHER SERVICE MISSOULA MT
803 AM MDT TUE JUL 22 2014

Montana AWOS Reports

ROUNDUP     |KRPX 221355Z AUTO 00000KT 40SM 17/14 A3009 RMK AO1 T01720144






000
SXUS55 KMSO 221344
OSOMSO
MONTANA AWOS SUMMARY
NATIONAL WEATHER SERVICE MISSOULA MT
743 AM MDT TUE JUL 22 2014

Montana AWOS Reports

LAUREL      |K6S8 221335Z AUTO 00000KT 40SM 19/11 A3015 RMK AO1 T01890111
ROUNDUP     |KRPX 221335Z AUTO 00000KT 40SM 17/14 A3009 RMK AO1 T01670139
MALTA       |KM75 221335Z AUTO 00000KT 40SM 15/12 A3013 RMK AO1 T01500117






000
SXUS55 KMSO 221324
OSOMSO
MONTANA AWOS SUMMARY
NATIONAL WEATHER SERVICE MISSOULA MT
723 AM MDT TUE JUL 22 2014

Montana AWOS Reports

LAUREL      |K6S8 221315Z AUTO 33006KT 40SM 17/11 A3015 RMK AO1 T01720106
ROUNDUP     |KRPX 221315Z AUTO 00000KT 40SM 16/14 A3009 RMK AO1 T01610139






000
SXUS55 KMSO 221313
OSOMSO
MONTANA AWOS SUMMARY
NATIONAL WEATHER SERVICE MISSOULA MT
713 AM MDT TUE JUL 22 2014

Montana AWOS Reports

PLAINS      |KS34 221255Z AUTO 00000KT 25SM 10/06 A3012 RMK AO1 T01000061
EKALAKA     |K97M 221255Z AUTO 12005KT 40SM 19/15 A3016 RMK AO1 T01890150






000
SXUS55 KMSO 221303
OSOMSO
MONTANA AWOS SUMMARY
NATIONAL WEATHER SERVICE MISSOULA MT
702 AM MDT TUE JUL 22 2014

Montana AWOS Reports

LAUREL      |K6S8 221255Z AUTO 00000KT 40SM 15/10 A3016 RMK AO1 T01500100
ROUNDUP     |KRPX 221255Z AUTO 00000KT 40SM 16/13 A3009 RMK AO1 T01560133
MALTA       |KM75 221255Z AUTO 00000KT 40SM 13/11 A3012 RMK AO1 T01330111
SCOBEY      |K9S2 221255Z AUTO 00000KT 13/11 A3014 RMK AO1 T01280106






000
SXUS55 KMSO 221244
OSOMSO
MONTANA AWOS SUMMARY
NATIONAL WEATHER SERVICE MISSOULA MT
643 AM MDT TUE JUL 22 2014

Montana AWOS Reports

LAUREL      |K6S8 221235Z AUTO 00000KT 40SM 14/09 A3016 RMK AO1 T01390094
ROUNDUP     |KRPX 221235Z AUTO 00000KT 40SM 14/12 A3009 RMK AO1 T01440122
MALTA       |KM75 221235Z AUTO 00000KT 40SM 12/09 A3011 RMK AO1 T01170094






000
SXUS55 KMSO 221233
OSOMSO
MONTANA AWOS SUMMARY
NATIONAL WEATHER SERVICE MISSOULA MT
633 AM MDT TUE JUL 22 2014

Montana AWOS Reports

EKALAKA     |K97M 221155Z AUTO 12005KT 40SM 17/14 A3016 RMK AO1 T01670139






000
SXUS55 KMSO 221223
OSOMSO
MONTANA AWOS SUMMARY
NATIONAL WEATHER SERVICE MISSOULA MT
623 AM MDT TUE JUL 22 2014

Montana AWOS Reports

LAUREL      |K6S8 221215Z AUTO 00000KT 40SM 13/09 A3016 RMK AO1 T01330089
ROUNDUP     |KRPX 221215Z AUTO 00000KT 40SM 14/12 A3008 RMK AO1 T01440122






000
SXUS55 KMSO 221203
OSOMSO
MONTANA AWOS SUMMARY
NATIONAL WEATHER SERVICE MISSOULA MT
603 AM MDT TUE JUL 22 2014

Montana AWOS Reports

LAUREL      |K6S8 221155Z AUTO 00000KT 40SM 14/09 A3015 RMK AO1 T01440089
PLAINS      |KS34 221155Z AUTO 00000KT 15SM 09/05 A3011 RMK AO1 T00940050
ROUNDUP     |KRPX 221155Z AUTO 00000KT 40SM 15/12 A3008 RMK AO1 T01500122
MALTA       |KM75 221155Z AUTO 00000KT 40SM 11/09 A3011 RMK AO1 T01110089
SCOBEY      |K9S2 221155Z AUTO 00000KT 11/09 A3012 RMK AO1 T01110089






000
SXUS55 KMSO 221143
OSOMSO
MONTANA AWOS SUMMARY
NATIONAL WEATHER SERVICE MISSOULA MT
543 AM MDT TUE JUL 22 2014

Montana AWOS Reports

ROUNDUP     |KRPX 221135Z AUTO 00000KT 40SM 15/13 A3008 RMK AO1 T01500128
MALTA       |KM75 221135Z AUTO 00000KT 40SM 11/08 A3010 RMK AO1 T01110083






000
SXUS55 KMSO 221123
OSOMSO
MONTANA AWOS SUMMARY
NATIONAL WEATHER SERVICE MISSOULA MT
523 AM MDT TUE JUL 22 2014

Montana AWOS Reports

ROUNDUP     |KRPX 221115Z AUTO 00000KT 40SM 15/13 A3006 RMK AO1 T01500128
MALTA       |KM75 221115Z AUTO 00000KT 40SM 12/09 A3010 RMK AO1 T01170089






000
SXUS55 KMSO 221113
OSOMSO
MONTANA AWOS SUMMARY
NATIONAL WEATHER SERVICE MISSOULA MT
512 AM MDT TUE JUL 22 2014

Montana AWOS Reports

EKALAKA     |K97M 221055Z AUTO 00000KT 25SM 16/14 A3015 RMK AO1 T01610139






000
SXUS55 KMSO 221104
OSOMSO
MONTANA AWOS SUMMARY
NATIONAL WEATHER SERVICE MISSOULA MT
503 AM MDT TUE JUL 22 2014

Montana AWOS Reports

ROUNDUP     |KRPX 221055Z AUTO 00000KT 25SM 15/12 A3006 RMK AO1 T01500122
MALTA       |KM75 221055Z AUTO 00000KT 40SM 12/09 A3010 RMK AO1 T01220094
SCOBEY      |K9S2 221055Z AUTO 00000KT 10/08 A3011 RMK AO1 T01000078
PLAINS      |KS34 221055Z AUTO 00000KT 15SM 11/06 A3010 RMK AO1 T01060056






000
SXUS55 KMSO 221044
OSOMSO
MONTANA AWOS SUMMARY
NATIONAL WEATHER SERVICE MISSOULA MT
443 AM MDT TUE JUL 22 2014

Montana AWOS Reports

ROUNDUP     |KRPX 221035Z AUTO 00000KT 40SM 16/12 A3006 RMK AO1 T01560122
MALTA       |KM75 221035Z AUTO 00000KT 40SM 13/11 A3009 RMK AO1 T01330111






000
SXUS55 KMSO 221033
OSOMSO
MONTANA AWOS SUMMARY
NATIONAL WEATHER SERVICE MISSOULA MT
433 AM MDT TUE JUL 22 2014

Montana AWOS Reports

MALTA       |KM75 221015Z AUTO 00000KT 40SM 12/09 A3009 RMK AO1 T01170089






000
SXUS55 KMSO 221023
OSOMSO
MONTANA AWOS SUMMARY
NATIONAL WEATHER SERVICE MISSOULA MT
423 AM MDT TUE JUL 22 2014

Montana AWOS Reports

LAUREL      |K6S8 221015Z AUTO 00000KT 40SM 14/09 A3012 RMK AO1 T01440089
ROUNDUP     |KRPX 221015Z AUTO 00000KT 40SM 16/13 A3005 RMK AO1 T01610128






000
SXUS55 KMSO 221003
OSOMSO
MONTANA AWOS SUMMARY
NATIONAL WEATHER SERVICE MISSOULA MT
403 AM MDT TUE JUL 22 2014

Montana AWOS Reports

LAUREL      |K6S8 220955Z AUTO 00000KT 40SM 14/09 A3012 RMK AO1 T01440094
ROUNDUP     |KRPX 220955Z AUTO 00000KT 40SM 16/13 A3004 RMK AO1 T01610133
MALTA       |KM75 220955Z AUTO 00000KT 40SM 12/09 A3008 RMK AO1 T01170089
SCOBEY      |K9S2 220955Z AUTO 00000KT 11/08 A3009 RMK AO1 T01110083
PLAINS      |KS34 220955Z AUTO 00000KT 15SM 11/06 A3009 RMK AO1 T01060056
EKALAKA     |K97M 220955Z AUTO 12004KT 25SM 16/13 A3012 RMK AO1 T01560133






000
SXUS55 KMSO 220953
OSOMSO
MONTANA AWOS SUMMARY
NATIONAL WEATHER SERVICE MISSOULA MT
353 AM MDT TUE JUL 22 2014

Montana AWOS Reports

ROUNDUP     |KRPX 220935Z AUTO 00000KT 40SM 16/13 A3005 RMK AO1 T01560128
MALTA       |KM75 220935Z AUTO 00000KT 40SM 12/09 A3008 RMK AO1 T01170089






000
SXUS55 KMSO 220943
OSOMSO
MONTANA AWOS SUMMARY
NATIONAL WEATHER SERVICE MISSOULA MT
342 AM MDT TUE JUL 22 2014

Montana AWOS Reports

LAUREL      |K6S8 220935Z AUTO 00000KT 40SM 16/10 A3011 RMK AO1 T01560100






000
SXUS55 KMSO 220923
OSOMSO
MONTANA AWOS SUMMARY
NATIONAL WEATHER SERVICE MISSOULA MT
323 AM MDT TUE JUL 22 2014

Montana AWOS Reports

LAUREL      |K6S8 220915Z AUTO 00000KT 40SM 16/09 A3011 RMK AO1 T01560094
ROUNDUP     |KRPX 220915Z AUTO 00000KT 40SM 16/13 A3004 RMK AO1 T01560128
MALTA       |KM75 220915Z AUTO 00000KT 40SM 12/09 A3007 RMK AO1 T01220089






000
SXUS55 KMSO 220913
OSOMSO
MONTANA AWOS SUMMARY
NATIONAL WEATHER SERVICE MISSOULA MT
313 AM MDT TUE JUL 22 2014

Montana AWOS Reports

MALTA       |KM75 220855Z AUTO 00000KT 40SM 13/09 A3007 RMK AO1 T01280094






000
SXUS55 KMSO 220903
OSOMSO
MONTANA AWOS SUMMARY
NATIONAL WEATHER SERVICE MISSOULA MT
303 AM MDT TUE JUL 22 2014

Montana AWOS Reports

LAUREL      |K6S8 220855Z AUTO 00000KT 40SM 16/09 A3010 RMK AO1 T01560094
ROUNDUP     |KRPX 220855Z AUTO 00000KT 40SM 16/13 A3004 RMK AO1 T01560128
SCOBEY      |K9S2 220855Z AUTO 00000KT 13/10 A3008 RMK AO1 T01330100
EKALAKA     |K97M 220855Z AUTO 12004KT 25SM 16/14 A3010 RMK AO1 T01610139
PLAINS      |KS34 220855Z AUTO 00000KT 15SM 11/06 A3010 RMK AO1 T01110056






000
SXUS55 KMSO 220843
OSOMSO
MONTANA AWOS SUMMARY
NATIONAL WEATHER SERVICE MISSOULA MT
243 AM MDT TUE JUL 22 2014

Montana AWOS Reports

ROUNDUP     |KRPX 220835Z AUTO 21004KT 40SM 16/14 A3004 RMK AO1 T01610139
MALTA       |KM75 220835Z AUTO 00000KT 40SM 13/09 A3007 RMK AO1 T01280094






000
SXUS55 KMSO 220823
OSOMSO
MONTANA AWOS SUMMARY
NATIONAL WEATHER SERVICE MISSOULA MT
223 AM MDT TUE JUL 22 2014

Montana AWOS Reports

LAUREL      |K6S8 220815Z AUTO 00000KT 40SM 16/11 A3011 RMK AO1 T01610106
ROUNDUP     |KRPX 220815Z AUTO 00000KT 40SM 16/13 A3004 RMK AO1 T01610133
MALTA       |KM75 220815Z AUTO 00000KT 40SM 13/10 A3007 RMK AO1 T01330100






000
SXUS55 KMSO 220813
OSOMSO
MONTANA AWOS SUMMARY
NATIONAL WEATHER SERVICE MISSOULA MT
213 AM MDT TUE JUL 22 2014

Montana AWOS Reports

MALTA       |KM75 220755Z AUTO 00000KT 40SM 14/11 A3006 RMK AO1 T01390106






000
SXUS55 KMSO 220803
OSOMSO
MONTANA AWOS SUMMARY
NATIONAL WEATHER SERVICE MISSOULA MT
203 AM MDT TUE JUL 22 2014

Montana AWOS Reports

ROUNDUP     |KRPX 220755Z AUTO 00000KT 40SM 16/13 A3004 RMK AO1 T01610133
EKALAKA     |K97M 220755Z AUTO 11005KT 25SM 17/15 A3009 RMK AO1 T01720150
SCOBEY      |K9S2 220755Z AUTO 00000KT 14/11 A3006 RMK AO1 T01390106






000
SXUS55 KMSO 220743
OSOMSO
MONTANA AWOS SUMMARY
NATIONAL WEATHER SERVICE MISSOULA MT
143 AM MDT TUE JUL 22 2014

Montana AWOS Reports

LAUREL      |K6S8 220735Z AUTO 00000KT 40SM 18/10 A3012 RMK AO1 T01780100
ROUNDUP     |KRPX 220735Z AUTO 00000KT 40SM 16/14 A3003 RMK AO1 T01610139
MALTA       |KM75 220735Z AUTO 00000KT 40SM 15/11 A3005 RMK AO1 T01500111






000
SXUS55 KMSO 220723
OSOMSO
MONTANA AWOS SUMMARY
NATIONAL WEATHER SERVICE MISSOULA MT
123 AM MDT TUE JUL 22 2014

Montana AWOS Reports

ROUNDUP     |KRPX 220715Z AUTO 00000KT 40SM 16/13 A3003 RMK AO1 T01610133
MALTA       |KM75 220715Z AUTO 00000KT 40SM 16/11 A3005 RMK AO1 T01560111






000
SXUS55 KMSO 220704
OSOMSO
MONTANA AWOS SUMMARY
NATIONAL WEATHER SERVICE MISSOULA MT
103 AM MDT TUE JUL 22 2014

Montana AWOS Reports

ROUNDUP     |KRPX 220655Z AUTO 00000KT 40SM 16/13 A3003 RMK AO1 T01610133
SCOBEY      |K9S2 220655Z AUTO 00000KT 16/13 A3005 RMK AO1 T01610128
PLAINS      |KS34 220655Z AUTO 00000KT 15SM 12/05 A3008 RMK AO1 T01170050
LAUREL      |K6S8 220655Z AUTO 00000KT 40SM 18/09 A3009 RMK AO1 T01780094
MALTA       |KM75 220655Z AUTO 00000KT 40SM 17/11 A3004 RMK AO1 T01670111
EKALAKA     |K97M 220655Z AUTO 12005KT 25SM 18/15 A3008 RMK AO1 T01780150






000
SXUS55 KMSO 220643
OSOMSO
MONTANA AWOS SUMMARY
NATIONAL WEATHER SERVICE MISSOULA MT
1242 AM MDT TUE JUL 22 2014

Montana AWOS Reports

ROUNDUP     |KRPX 220635Z AUTO 00000KT 40SM 17/14 A3002 RMK AO1 T01670139
MALTA       |KM75 220635Z AUTO 00000KT 40SM 18/12 A3003 RMK AO1 T01780117
LAUREL      |K6S8 220635Z AUTO 00000KT 40SM 17/09 A3009 RMK AO1 T01670089






000
SXUS55 KMSO 220624
OSOMSO
MONTANA AWOS SUMMARY
NATIONAL WEATHER SERVICE MISSOULA MT
1223 AM MDT TUE JUL 22 2014

Montana AWOS Reports

LAUREL      |K6S8 220615Z AUTO 00000KT 40SM 17/08 A3009 RMK AO1 T01670083
ROUNDUP     |KRPX 220615Z AUTO 00000KT 40SM 16/13 A3002 RMK AO1 T01610133
MALTA       |KM75 220615Z AUTO 00000KT 40SM 18/11 A3002 RMK AO1 T01780111






000
SXUS55 KMSO 220603
OSOMSO
MONTANA AWOS SUMMARY
NATIONAL WEATHER SERVICE MISSOULA MT
1203 AM MDT TUE JUL 22 2014

Montana AWOS Reports

LAUREL      |K6S8 220555Z AUTO 00000KT 40SM 18/09 A3008 RMK AO1 T01780089
SCOBEY      |K9S2 220555Z AUTO 00000KT 18/14 A3003 RMK AO1 T01780139
ROUNDUP     |KRPX 220555Z AUTO 00000KT 40SM 17/14 A3002 RMK AO1 T01670139
PLAINS      |KS34 220555Z AUTO 00000KT 15SM 13/04 A3007 RMK AO1 T01280039
EKALAKA     |K97M 220555Z AUTO 12006KT 40SM 18/15 A3007 RMK AO1 T01830150
MALTA       |KM75 220555Z AUTO 00000KT 40SM 18/11 A3001 RMK AO1 T01780111






000
SXUS55 KMSO 220543
OSOMSO
MONTANA AWOS SUMMARY
NATIONAL WEATHER SERVICE MISSOULA MT
1143 PM MDT MON JUL 21 2014

Montana AWOS Reports

LAUREL      |K6S8 220535Z AUTO 00000KT 40SM 17/09 A3008 RMK AO1 T01720089
ROUNDUP     |KRPX 220535Z AUTO 00000KT 40SM 17/14 A3001 RMK AO1 T01670139
MALTA       |KM75 220535Z AUTO 00000KT 40SM 18/12 A3001 RMK AO1 T01830117






000
SXUS55 KMSO 220523
OSOMSO
MONTANA AWOS SUMMARY
NATIONAL WEATHER SERVICE MISSOULA MT
1123 PM MDT MON JUL 21 2014

Montana AWOS Reports

LAUREL      |K6S8 220515Z AUTO 00000KT 40SM 18/10 A3009 RMK AO1 T01780100
ROUNDUP     |KRPX 220515Z AUTO 00000KT 40SM 17/14 A3001 RMK AO1 T01670139






000
SXUS55 KMSO 220503
OSOMSO
MONTANA AWOS SUMMARY
NATIONAL WEATHER SERVICE MISSOULA MT
1103 PM MDT MON JUL 21 2014

Montana AWOS Reports

LAUREL      |K6S8 220455Z AUTO 00000KT 40SM 18/11 A3009 RMK AO1 T01830106
ROUNDUP     |KRPX 220455Z AUTO 00000KT 40SM 17/14 A3001 RMK AO1 T01670139
EKALAKA     |K97M 220455Z AUTO 00000KT 40SM 19/14 A3007 RMK AO1 T01940144
PLAINS      |KS34 220455Z AUTO 00000KT 25SM 16/04 A3006 RMK AO1 T01610039
MALTA       |KM75 220455Z AUTO 00000KT 40SM 19/12 A2999 RMK AO1 T01940122






000
SXUS55 KMSO 220453
OSOMSO
MONTANA AWOS SUMMARY
NATIONAL WEATHER SERVICE MISSOULA MT
1053 PM MDT MON JUL 21 2014

Montana AWOS Reports

ROUNDUP     |KRPX 220435Z AUTO 22006KT 40SM 17/14 A3000 RMK AO1 T01670139
MALTA       |KM75 220435Z AUTO 36005KT 40SM 21/13 A2999 RMK AO1 T02060128






000
SXUS55 KMSO 220443
OSOMSO
MONTANA AWOS SUMMARY
NATIONAL WEATHER SERVICE MISSOULA MT
1043 PM MDT MON JUL 21 2014

Montana AWOS Reports

LAUREL      |K6S8 220435Z AUTO 00000KT 40SM 18/10 A3008 RMK AO1 T01830100






000
SXUS55 KMSO 220424
OSOMSO
MONTANA AWOS SUMMARY
NATIONAL WEATHER SERVICE MISSOULA MT
1023 PM MDT MON JUL 21 2014

Montana AWOS Reports

LAUREL      |K6S8 220415Z AUTO 00000KT 40SM 18/10 A3007 RMK AO1 T01780100
ROUNDUP     |KRPX 220415Z AUTO 00000KT 40SM 17/14 A2999 RMK AO1 T01670139
MALTA       |KM75 220415Z AUTO 00000KT 40SM 20/12 A2999 RMK AO1 T02000122






000
SXUS55 KMSO 220413
OSOMSO
MONTANA AWOS SUMMARY
NATIONAL WEATHER SERVICE MISSOULA MT
1013 PM MDT MON JUL 21 2014

Montana AWOS Reports

MALTA       |KM75 220355Z AUTO 36006KT 40SM 21/13 A2999 RMK AO1 T02110128






000
SXUS55 KMSO 220403
OSOMSO
MONTANA AWOS SUMMARY
NATIONAL WEATHER SERVICE MISSOULA MT
1003 PM MDT MON JUL 21 2014

Montana AWOS Reports

SCOBEY      |K9S2 220355Z AUTO 00000KT 18/13 A3000 RMK AO1 T01780128
LAUREL      |K6S8 220355Z AUTO 00000KT 40SM 18/10 A3006 RMK AO1 T01780100
ROUNDUP     |KRPX 220355Z AUTO 00000KT 40SM 17/14 A2998 RMK AO1 T01720139
EKALAKA     |K97M 220355Z AUTO 00000KT 40SM 20/14 A3005 RMK AO1 T02000144
PLAINS      |KS34 220355Z AUTO 00000KT 25SM 19/03 A3005 RMK AO1 T01940033






000
SXUS55 KMSO 220343
OSOMSO
MONTANA AWOS SUMMARY
NATIONAL WEATHER SERVICE MISSOULA MT
943 PM MDT MON JUL 21 2014

Montana AWOS Reports

LAUREL      |K6S8 220335Z AUTO 00000KT 40SM 19/10 A3006 RMK AO1 T01890100
MALTA       |KM75 220335Z AUTO 36007KT 40SM 22/12 A2998 RMK AO1 T02170122
ROUNDUP     |KRPX 220335Z AUTO 00000KT 40SM 17/14 A2997 RMK AO1 T01720139






000
SXUS55 KMSO 220313
OSOMSO
MONTANA AWOS SUMMARY
NATIONAL WEATHER SERVICE MISSOULA MT
912 PM MDT MON JUL 21 2014

Montana AWOS Reports

LAUREL      |K6S8 220255Z AUTO 00000KT 40SM 19/09 A3006 RMK AO1 T01890094
ROUNDUP     |KRPX 220255Z AUTO 00000KT 40SM 17/14 A2996 RMK AO1 T01720139
MALTA       |KM75 220255Z AUTO 36004KT 40SM 24/13 A2996 RMK AO1 T02390128
SCOBEY      |K9S2 220255Z AUTO 08004KT 21/14 A2999 RMK AO1 T02060139
EKALAKA     |K97M 220255Z AUTO 36004KT 40SM 22/14 A3001 RMK AO1 T02220139
PLAINS      |KS34 220255Z AUTO 00000KT 25SM 23/03 A3002 RMK AO1 T02280028






000
SXUS55 KMSO 220243
OSOMSO
MONTANA AWOS SUMMARY
NATIONAL WEATHER SERVICE MISSOULA MT
843 PM MDT MON JUL 21 2014

Montana AWOS Reports

LAUREL      |K6S8 220235Z AUTO 00000KT 40SM 19/09 A3005 RMK AO1 T01940094
MALTA       |KM75 220235Z AUTO 00000KT 40SM 24/14 A2995 RMK AO1 T02440139
ROUNDUP     |KRPX 220235Z AUTO 00000KT 40SM 18/15 A2996 RMK AO1 T01830150






000
SXUS55 KMSO 220223
OSOMSO
MONTANA AWOS SUMMARY
NATIONAL WEATHER SERVICE MISSOULA MT
823 PM MDT MON JUL 21 2014

Montana AWOS Reports

LAUREL      |K6S8 220215Z AUTO 00000KT 40SM 20/10 A3005 RMK AO1 T02000100
ROUNDUP     |KRPX 220215Z AUTO 00000KT 40SM 18/14 A2995 RMK AO1 T01780144
MALTA       |KM75 220215Z AUTO 00000KT 40SM 26/14 A2993 RMK AO1 T02610139






000
SXUS55 KMSO 220213
OSOMSO
MONTANA AWOS SUMMARY
NATIONAL WEATHER SERVICE MISSOULA MT
813 PM MDT MON JUL 21 2014

Montana AWOS Reports

ROUNDUP     |KRPX 220155Z AUTO 00000KT 40SM 18/14 A2995 RMK AO1 T01780144
MALTA       |KM75 220155Z AUTO 00000KT 40SM 26/13 A2992 RMK AO1 T02610133






000
SXUS55 KMSO 220203
OSOMSO
MONTANA AWOS SUMMARY
NATIONAL WEATHER SERVICE MISSOULA MT
803 PM MDT MON JUL 21 2014

Montana AWOS Reports

LAUREL      |K6S8 220155Z AUTO 00000KT 40SM 20/10 A3005 RMK AO1 T02000100
SCOBEY      |K9S2 220155Z AUTO 00000KT 21/13 A2997 RMK AO1 T02110133
EKALAKA     |K97M 220155Z AUTO 34006KT 40SM 24/14 A2998 RMK AO1 T02390144
PLAINS      |KS34 220155Z AUTO 29005KT 25SM 26/04 A3000 RMK AO1 T02610039






000
SXUS55 KMSO 220143
OSOMSO
MONTANA AWOS SUMMARY
NATIONAL WEATHER SERVICE MISSOULA MT
743 PM MDT MON JUL 21 2014

Montana AWOS Reports

LAUREL      |K6S8 220135Z AUTO 04005KT 40SM 21/10 A3004 RMK AO1 T02060100
ROUNDUP     |KRPX 220135Z AUTO 00000KT 40SM 18/14 A2994 RMK AO1 T01780139






000
SXUS55 KMSO 220123
OSOMSO
MONTANA AWOS SUMMARY
NATIONAL WEATHER SERVICE MISSOULA MT
723 PM MDT MON JUL 21 2014

Montana AWOS Reports

LAUREL      |K6S8 220115Z AUTO 00000KT 40SM 21/10 A3005 RMK AO1 T02110100
ROUNDUP     |KRPX 220115Z AUTO 00000KT 40SM 17/14 A2995 RMK AO1 T01720139
MALTA       |KM75 220055Z AUTO 00000KT 40SM 26/13 A2991 RMK AO1 T02610133






000
SXUS55 KMSO 220104
OSOMSO
MONTANA AWOS SUMMARY
NATIONAL WEATHER SERVICE MISSOULA MT
703 PM MDT MON JUL 21 2014

Montana AWOS Reports

LAUREL      |K6S8 220055Z AUTO 32004KT 40SM 22/09 A3004 RMK AO1 T02170089
EKALAKA     |K97M 220055Z AUTO 33007KT 40SM 26/14 A2995 RMK AO1 T02610144
PLAINS      |KS34 220055Z AUTO 27005KT 25SM 27/03 A2999 RMK AO1 T02720028
ROUNDUP     |KRPX 220055Z AUTO 00000KT 40SM 17/13 A2994 RMK AO1 T01670133
MALTA       |KM75 220055Z AUTO 00000KT 40SM 26/13 A2991 RMK AO1 T02610133
SCOBEY      |K9S2 220055Z AUTO 06004KT 23/13 A2995 RMK AO1 T02280128






000
SXUS55 KMSO 220043
OSOMSO
MONTANA AWOS SUMMARY
NATIONAL WEATHER SERVICE MISSOULA MT
643 PM MDT MON JUL 21 2014

Montana AWOS Reports

LAUREL      |K6S8 220035Z AUTO 33008KT 40SM 22/09 A3003 RMK AO1 T02170089
ROUNDUP     |KRPX 220035Z AUTO 00000KT 40SM 17/13 A2994 RMK AO1 T01670133






000
SXUS55 KMSO 220023
OSOMSO
MONTANA AWOS SUMMARY
NATIONAL WEATHER SERVICE MISSOULA MT
623 PM MDT MON JUL 21 2014

Montana AWOS Reports

MALTA       |KM75 212355Z AUTO 00000KT 40SM 25/13 A2992 RMK AO1 T02500128
LAUREL      |K6S8 220015Z AUTO 32011G20KT 40SM 22/09 A3001 RMK AO1 T02170094
ROUNDUP     |KRPX 220015Z AUTO 00000KT 15SM 17/13 A2993 RMK AO1 T01670128
MALTA       |KM75 220015Z AUTO 00000KT 40SM 26/12 A2991 RMK AO1 T02560122






000
SXUS55 KMSO 220013
OSOMSO
MONTANA AWOS SUMMARY
NATIONAL WEATHER SERVICE MISSOULA MT
612 PM MDT MON JUL 21 2014

Montana AWOS Reports

ROUNDUP     |KRPX 212355Z AUTO 00000KT 4SM 18/13 A2997 RMK AO1 T01780133
SCOBEY      |K9S2 212355Z AUTO 00000KT 24/12 A2992 RMK AO1 T02440122
EKALAKA     |K97M 212355Z AUTO 33011G17KT 40SM 27/14 A2993 RMK AO1 T02670144
PLAINS      |KS34 212355Z AUTO 28005KT 25SM 28/04 A2998 RMK AO1 T02830039






000
SXUS55 KMSO 220004
OSOMSO
MONTANA AWOS SUMMARY
NATIONAL WEATHER SERVICE MISSOULA MT
603 PM MDT MON JUL 21 2014

Montana AWOS Reports

LAUREL      |K6S8 212355Z AUTO 32016G22KT 40SM 24/12 A3000 RMK AO1 T02440117






000
SXUS55 KMSO 212343
OSOMSO
MONTANA AWOS SUMMARY
NATIONAL WEATHER SERVICE MISSOULA MT
543 PM MDT MON JUL 21 2014

Montana AWOS Reports

ROUNDUP     |KRPX 212335Z AUTO 29020G24KT 40SM 21/13 A2995 RMK AO1 T02110128
MALTA       |KM75 212335Z AUTO 00000KT 40SM 24/13 A2992 RMK AO1 T02440128






000
SXUS55 KMSO 212333
OSOMSO
MONTANA AWOS SUMMARY
NATIONAL WEATHER SERVICE MISSOULA MT
533 PM MDT MON JUL 21 2014

Montana AWOS Reports

MALTA       |KM75 212255Z AUTO 00000KT 40SM 24/15 A2992 RMK AO1 T02440150






000
SXUS55 KMSO 212323
OSOMSO
MONTANA AWOS SUMMARY
NATIONAL WEATHER SERVICE MISSOULA MT
523 PM MDT MON JUL 21 2014

Montana AWOS Reports

LAUREL      |K6S8 212315Z AUTO 22004KT 40SM 24/10 A2999 RMK AO1 T02390100
ROUNDUP     |KRPX 212315Z AUTO 30019G25KT 40SM 25/11 A2994 RMK AO1 T02500106
MALTA       |KM75 212315Z AUTO 00000KT 40SM 25/13 A2991 RMK AO1 T02500133






000
SXUS55 KMSO 212313
OSOMSO
MONTANA AWOS SUMMARY
NATIONAL WEATHER SERVICE MISSOULA MT
513 PM MDT MON JUL 21 2014

Montana AWOS Reports

PLAINS      |KS34 212255Z AUTO 15SM 28/05 A2998 RMK AO1 T02830050
SCOBEY      |K9S2 212255Z AUTO 36006KT 23/13 A2993 RMK AO1 T02330128
EKALAKA     |K97M 212255Z AUTO 33008KT 40SM 28/14 A2992 RMK AO1 T02830144






000
SXUS55 KMSO 212303
OSOMSO
MONTANA AWOS SUMMARY
NATIONAL WEATHER SERVICE MISSOULA MT
503 PM MDT MON JUL 21 2014

Montana AWOS Reports

LAUREL      |K6S8 212255Z AUTO 23009G13KT 40SM 23/10 A3001 RMK AO1 T02280100






000
SXUS55 KMSO 212243
OSOMSO
MONTANA AWOS SUMMARY
NATIONAL WEATHER SERVICE MISSOULA MT
443 PM MDT MON JUL 21 2014

Montana AWOS Reports

LAUREL      |K6S8 212235Z AUTO 23006KT 10SM 24/13 A2999 RMK AO1 T02390128
ROUNDUP     |KRPX 212235Z AUTO 00000KT 40SM 26/10 A2991 RMK AO1 T02560100






000
SXUS55 KMSO 212223
OSOMSO
MONTANA AWOS SUMMARY
NATIONAL WEATHER SERVICE MISSOULA MT
423 PM MDT MON JUL 21 2014

Montana AWOS Reports

LAUREL      |K6S8 212215Z AUTO 00000KT 40SM 26/11 A2999 RMK AO1 T02610111
ROUNDUP     |KRPX 212215Z AUTO 00000KT 40SM 26/10 A2989 RMK AO1 T02560100
MALTA       |KM75 212215Z AUTO 00000KT 40SM 24/15 A2991 RMK AO1 T02390150






000
SXUS55 KMSO 212213
OSOMSO
MONTANA AWOS SUMMARY
NATIONAL WEATHER SERVICE MISSOULA MT
413 PM MDT MON JUL 21 2014

Montana AWOS Reports

EKALAKA     |K97M 212155Z AUTO 30009G14KT 40SM 28/14 A2992 RMK AO1 T02830144






000
SXUS55 KMSO 212203
OSOMSO
MONTANA AWOS SUMMARY
NATIONAL WEATHER SERVICE MISSOULA MT
403 PM MDT MON JUL 21 2014

Montana AWOS Reports

LAUREL      |K6S8 212155Z AUTO 06004KT 40SM 27/12 A2997 RMK AO1 T02720117
ROUNDUP     |KRPX 212155Z AUTO 00000KT 40SM 24/10 A2989 RMK AO1 T02390100






000
SXUS55 KMSO 212153
OSOMSO
MONTANA AWOS SUMMARY
NATIONAL WEATHER SERVICE MISSOULA MT
353 PM MDT MON JUL 21 2014

Montana AWOS Reports

MALTA       |KM75 212055Z AUTO 00000KT 40SM 20/16 A2991 RMK AO1 T02000156






000
SXUS55 KMSO 212144
OSOMSO
MONTANA AWOS SUMMARY
NATIONAL WEATHER SERVICE MISSOULA MT
343 PM MDT MON JUL 21 2014

Montana AWOS Reports

LAUREL      |K6S8 212135Z AUTO 07004KT 40SM 27/11 A2996 RMK AO1 T02720111
MALTA       |KM75 212135Z AUTO 00000KT 40SM 23/16 A2990 RMK AO1 T02280156
ROUNDUP     |KRPX 212135Z AUTO 00000KT 40SM 24/10 A2990 RMK AO1 T02440100






000
SXUS55 KMSO 212124
OSOMSO
MONTANA AWOS SUMMARY
NATIONAL WEATHER SERVICE MISSOULA MT
323 PM MDT MON JUL 21 2014

Montana AWOS Reports

LAUREL      |K6S8 212115Z AUTO 06004KT 40SM 27/12 A2996 RMK AO1 T02670117
MALTA       |KM75 212115Z AUTO 00000KT 40SM 21/16 A2991 RMK AO1 T02060156
ROUNDUP     |KRPX 212115Z AUTO 00000KT 40SM 24/10 A2990 RMK AO1 T02440100






000
SXUS55 KMSO 212114
OSOMSO
MONTANA AWOS SUMMARY
NATIONAL WEATHER SERVICE MISSOULA MT
313 PM MDT MON JUL 21 2014

Montana AWOS Reports

MALTA       |KM75 211855Z AUTO 00000KT 40SM 22/15 A2992 RMK AO1 T02170150






000
SXUS55 KMSO 212103
OSOMSO
MONTANA AWOS SUMMARY
NATIONAL WEATHER SERVICE MISSOULA MT
303 PM MDT MON JUL 21 2014

Montana AWOS Reports

LAUREL      |K6S8 212055Z AUTO 07005KT 40SM 27/11 A2996 RMK AO1 T02670111
ROUNDUP     |KRPX 212055Z AUTO 07009KT 40SM 26/10 A2989 RMK AO1 T02560100






000
SXUS55 KMSO 212054
OSOMSO
MONTANA AWOS SUMMARY
NATIONAL WEATHER SERVICE MISSOULA MT
253 PM MDT MON JUL 21 2014

Montana AWOS Reports

ROUNDUP     |KRPX 212035Z AUTO 08006KT 40SM 26/10 A2990 RMK AO1 T02560100
MALTA       |KM75 212035Z AUTO 00000KT 40SM 19/15 A2991 RMK AO1 T01940150






000
SXUS55 KMSO 212044
OSOMSO
MONTANA AWOS SUMMARY
NATIONAL WEATHER SERVICE MISSOULA MT
243 PM MDT MON JUL 21 2014

Montana AWOS Reports

LAUREL      |K6S8 212035Z AUTO 03005KT 40SM 26/12 A2997 RMK AO1 T02610117






000
SXUS55 KMSO 212024
OSOMSO
MONTANA AWOS SUMMARY
NATIONAL WEATHER SERVICE MISSOULA MT
223 PM MDT MON JUL 21 2014

Montana AWOS Reports

LAUREL      |K6S8 212015Z AUTO 05005KT 40SM 26/12 A2998 RMK AO1 T02610117
ROUNDUP     |KRPX 212015Z AUTO 05007KT 40SM 24/10 A2990 RMK AO1 T02440100






000
SXUS55 KMSO 212014
OSOMSO
MONTANA AWOS SUMMARY
NATIONAL WEATHER SERVICE MISSOULA MT
213 PM MDT MON JUL 21 2014

Montana AWOS Reports

EKALAKA     |K97M 211955Z AUTO 28009KT 40SM 26/13 A2989 RMK AO1 T02610133






    US Dept of Commerce
    National Oceanic and Atmospheric Administration
    National Weather Service
    1325 East West Highway
    Silver Spring, MD 20910
    Page Author: NWS Internet Services Team
Disclaimer
Information Quality
Credits
Glossary
Privacy Policy
Freedom of Information Act (FOIA)
About Us
Career Opportunities